<?xml version="1.0" encoding="UTF-8" standalone="no" ?>
<gpx xmlns="http://www.topografix.com/GPX/1/1" xmlns:xsi="http://www.w3.org/2001/XMLSchema-instance" xsi:schemaLocation="http://www.topografix.com/GPX/1/1 http://www.topografix.com/GPX/1/1/gpx.xsd" version="1.1" creator="VisuGPX - https://www.visugpx.com">
  <metadata>
    <name>Circuit Footing Vallée du ITON</name>
    <desc><![CDATA[Circuit 2/3 Forêt, 70% sur route goudronnée]]></desc>
  </metadata>
  <wpt lat="38.85555" lon="-94.79902">
    <ele>3.01</ele>
    <name><![CDATA[GARMIN]]></name>
  </wpt>
  <wpt lat="50.98288" lon="-1.4639">
    <ele>3.01</ele>
    <name><![CDATA[GRMEUR]]></name>
  </wpt>
  <wpt lat="25.06178" lon="121.64027">
    <ele>3.01</ele>
    <name><![CDATA[GRMTWN]]></name>
  </wpt>
  <wpt lat="43.57746" lon="1.45163">
    <ele>97.22</ele>
    <name><![CDATA[MAP]]></name>
  </wpt>
  <trk>
    <name><![CDATA[ACTIVE LOG: 31 DEC 2010 08:29]]></name>
    <trkseg>
      <trkpt lat="49.00252" lon="1.08939">
        <ele>28.98</ele>
        <time>2010-12-31T07:29:34Z</time>
      </trkpt>
      <trkpt lat="49.00252" lon="1.08939">
        <ele>32.82</ele>
        <time>2010-12-31T07:29:36Z</time>
      </trkpt>
      <trkpt lat="49.00252" lon="1.08938">
        <ele>39.55</ele>
        <time>2010-12-31T07:29:38Z</time>
      </trkpt>
      <trkpt lat="49.00252" lon="1.08938">
        <ele>42.44</ele>
        <time>2010-12-31T07:29:39Z</time>
      </trkpt>
      <trkpt lat="49.00252" lon="1.08938">
        <ele>45.8</ele>
        <time>2010-12-31T07:29:40Z</time>
      </trkpt>
      <trkpt lat="49.00251" lon="1.08937">
        <ele>51.57</ele>
        <time>2010-12-31T07:29:42Z</time>
      </trkpt>
      <trkpt lat="49.00251" lon="1.08937">
        <ele>55.89</ele>
        <time>2010-12-31T07:29:44Z</time>
      </trkpt>
      <trkpt lat="49.00251" lon="1.08936">
        <ele>60.7</ele>
        <time>2010-12-31T07:29:46Z</time>
      </trkpt>
      <trkpt lat="49.00251" lon="1.08936">
        <ele>65.51</ele>
        <time>2010-12-31T07:29:48Z</time>
      </trkpt>
      <trkpt lat="49.00251" lon="1.08935">
        <ele>69.35</ele>
        <time>2010-12-31T07:29:50Z</time>
      </trkpt>
      <trkpt lat="49.0025" lon="1.08934">
        <ele>73.2</ele>
        <time>2010-12-31T07:29:52Z</time>
      </trkpt>
      <trkpt lat="49.0025" lon="1.08934">
        <ele>77.04</ele>
        <time>2010-12-31T07:29:54Z</time>
      </trkpt>
      <trkpt lat="49.0025" lon="1.08933">
        <ele>80.89</ele>
        <time>2010-12-31T07:29:56Z</time>
      </trkpt>
      <trkpt lat="49.0025" lon="1.08933">
        <ele>84.25</ele>
        <time>2010-12-31T07:29:58Z</time>
      </trkpt>
      <trkpt lat="49.0025" lon="1.08933">
        <ele>87.62</ele>
        <time>2010-12-31T07:30:00Z</time>
      </trkpt>
      <trkpt lat="49.0025" lon="1.08933">
        <ele>91.46</ele>
        <time>2010-12-31T07:30:03Z</time>
      </trkpt>
      <trkpt lat="49.0025" lon="1.08933">
        <ele>96.27</ele>
        <time>2010-12-31T07:30:07Z</time>
      </trkpt>
      <trkpt lat="49.0025" lon="1.08933">
        <ele>98.67</ele>
        <time>2010-12-31T07:30:10Z</time>
      </trkpt>
      <trkpt lat="49.0025" lon="1.08933">
        <ele>102.04</ele>
        <time>2010-12-31T07:30:13Z</time>
      </trkpt>
      <trkpt lat="49.0025" lon="1.08933">
        <ele>104.44</ele>
        <time>2010-12-31T07:30:16Z</time>
      </trkpt>
      <trkpt lat="49.0025" lon="1.08933">
        <ele>107.32</ele>
        <time>2010-12-31T07:30:20Z</time>
      </trkpt>
      <trkpt lat="49.0025" lon="1.08933">
        <ele>110.69</ele>
        <time>2010-12-31T07:30:26Z</time>
      </trkpt>
      <trkpt lat="49.0025" lon="1.08933">
        <ele>113.09</ele>
        <time>2010-12-31T07:30:29Z</time>
      </trkpt>
      <trkpt lat="49.0025" lon="1.08933">
        <ele>116.46</ele>
        <time>2010-12-31T07:30:35Z</time>
      </trkpt>
      <trkpt lat="49.0025" lon="1.08932">
        <ele>119.34</ele>
        <time>2010-12-31T07:30:44Z</time>
      </trkpt>
      <trkpt lat="49.0025" lon="1.08932">
        <ele>121.74</ele>
        <time>2010-12-31T07:30:51Z</time>
      </trkpt>
      <trkpt lat="49.0025" lon="1.08932">
        <ele>126.07</ele>
        <time>2010-12-31T07:31:03Z</time>
      </trkpt>
      <trkpt lat="49.0025" lon="1.08932">
        <ele>122.71</ele>
        <time>2010-12-31T07:31:05Z</time>
      </trkpt>
      <trkpt lat="49.0025" lon="1.08932">
        <ele>125.59</ele>
        <time>2010-12-31T07:31:11Z</time>
      </trkpt>
      <trkpt lat="49.0025" lon="1.08932">
        <ele>124.15</ele>
        <time>2010-12-31T07:31:12Z</time>
      </trkpt>
      <trkpt lat="49.0025" lon="1.08932">
        <ele>127.51</ele>
        <time>2010-12-31T07:31:16Z</time>
      </trkpt>
      <trkpt lat="49.0025" lon="1.08932">
        <ele>125.11</ele>
        <time>2010-12-31T07:31:17Z</time>
      </trkpt>
      <trkpt lat="49.0025" lon="1.08932">
        <ele>126.07</ele>
        <time>2010-12-31T07:31:22Z</time>
      </trkpt>
      <trkpt lat="49.0025" lon="1.08932">
        <ele>122.71</ele>
        <time>2010-12-31T07:31:24Z</time>
      </trkpt>
      <trkpt lat="49.0025" lon="1.08932">
        <ele>124.15</ele>
        <time>2010-12-31T07:31:25Z</time>
      </trkpt>
      <trkpt lat="49.0025" lon="1.08932">
        <ele>127.99</ele>
        <time>2010-12-31T07:31:29Z</time>
      </trkpt>
      <trkpt lat="49.0025" lon="1.08932">
        <ele>124.15</ele>
        <time>2010-12-31T07:31:30Z</time>
      </trkpt>
      <trkpt lat="49.0025" lon="1.08932">
        <ele>127.99</ele>
        <time>2010-12-31T07:31:32Z</time>
      </trkpt>
      <trkpt lat="49.0025" lon="1.08932">
        <ele>123.67</ele>
        <time>2010-12-31T07:31:37Z</time>
      </trkpt>
      <trkpt lat="49.0025" lon="1.08932">
        <ele>127.51</ele>
        <time>2010-12-31T07:31:39Z</time>
      </trkpt>
      <trkpt lat="49.0025" lon="1.08932">
        <ele>127.99</ele>
        <time>2010-12-31T07:31:40Z</time>
      </trkpt>
      <trkpt lat="49.0025" lon="1.08932">
        <ele>123.67</ele>
        <time>2010-12-31T07:31:54Z</time>
      </trkpt>
      <trkpt lat="49.0025" lon="1.08932">
        <ele>124.15</ele>
        <time>2010-12-31T07:32:03Z</time>
      </trkpt>
      <trkpt lat="49.0025" lon="1.08932">
        <ele>127.99</ele>
        <time>2010-12-31T07:32:04Z</time>
      </trkpt>
      <trkpt lat="49.0025" lon="1.08932">
        <ele>125.59</ele>
        <time>2010-12-31T07:32:05Z</time>
      </trkpt>
      <trkpt lat="49.0025" lon="1.08932">
        <ele>125.59</ele>
        <time>2010-12-31T07:32:20Z</time>
      </trkpt>
      <trkpt lat="49.0025" lon="1.08932">
        <ele>128.95</ele>
        <time>2010-12-31T07:32:25Z</time>
      </trkpt>
      <trkpt lat="49.0025" lon="1.08932">
        <ele>124.63</ele>
        <time>2010-12-31T07:32:26Z</time>
      </trkpt>
      <trkpt lat="49.00249" lon="1.08932">
        <ele>127.03</ele>
        <time>2010-12-31T07:32:29Z</time>
      </trkpt>
      <trkpt lat="49.00249" lon="1.08932">
        <ele>123.67</ele>
        <time>2010-12-31T07:32:33Z</time>
      </trkpt>
      <trkpt lat="49.00249" lon="1.08932">
        <ele>123.67</ele>
        <time>2010-12-31T07:32:34Z</time>
      </trkpt>
      <trkpt lat="49.00249" lon="1.08932">
        <ele>128.95</ele>
        <time>2010-12-31T07:32:36Z</time>
      </trkpt>
      <trkpt lat="49.00249" lon="1.08932">
        <ele>125.59</ele>
        <time>2010-12-31T07:32:37Z</time>
      </trkpt>
      <trkpt lat="49.00249" lon="1.08932">
        <ele>129.43</ele>
        <time>2010-12-31T07:32:38Z</time>
      </trkpt>
      <trkpt lat="49.00249" lon="1.08932">
        <ele>123.19</ele>
        <time>2010-12-31T07:32:39Z</time>
      </trkpt>
      <trkpt lat="49.00249" lon="1.08932">
        <ele>130.4</ele>
        <time>2010-12-31T07:32:41Z</time>
      </trkpt>
      <trkpt lat="49.00249" lon="1.08932">
        <ele>125.11</ele>
        <time>2010-12-31T07:32:42Z</time>
      </trkpt>
      <trkpt lat="49.00249" lon="1.08932">
        <ele>128.47</ele>
        <time>2010-12-31T07:32:45Z</time>
      </trkpt>
      <trkpt lat="49.00249" lon="1.08932">
        <ele>128.47</ele>
        <time>2010-12-31T07:32:46Z</time>
      </trkpt>
      <trkpt lat="49.00249" lon="1.08932">
        <ele>125.11</ele>
        <time>2010-12-31T07:32:47Z</time>
      </trkpt>
      <trkpt lat="49.00249" lon="1.08932">
        <ele>126.55</ele>
        <time>2010-12-31T07:32:48Z</time>
      </trkpt>
      <trkpt lat="49.00249" lon="1.08932">
        <ele>125.59</ele>
        <time>2010-12-31T07:32:59Z</time>
      </trkpt>
      <trkpt lat="49.0025" lon="1.08931">
        <ele>127.99</ele>
        <time>2010-12-31T07:33:11Z</time>
      </trkpt>
      <trkpt lat="49.0025" lon="1.08931">
        <ele>124.63</ele>
        <time>2010-12-31T07:33:14Z</time>
      </trkpt>
      <trkpt lat="49.0025" lon="1.08931">
        <ele>128.47</ele>
        <time>2010-12-31T07:33:15Z</time>
      </trkpt>
      <trkpt lat="49.0025" lon="1.08931">
        <ele>125.11</ele>
        <time>2010-12-31T07:33:23Z</time>
      </trkpt>
      <trkpt lat="49.0025" lon="1.08931">
        <ele>125.59</ele>
        <time>2010-12-31T07:33:27Z</time>
      </trkpt>
      <trkpt lat="49.0025" lon="1.08931">
        <ele>128.95</ele>
        <time>2010-12-31T07:33:32Z</time>
      </trkpt>
      <trkpt lat="49.0025" lon="1.08931">
        <ele>122.71</ele>
        <time>2010-12-31T07:33:34Z</time>
      </trkpt>
      <trkpt lat="49.0025" lon="1.08931">
        <ele>126.07</ele>
        <time>2010-12-31T07:33:35Z</time>
      </trkpt>
      <trkpt lat="49.00249" lon="1.08931">
        <ele>129.92</ele>
        <time>2010-12-31T07:33:39Z</time>
      </trkpt>
      <trkpt lat="49.00249" lon="1.08931">
        <ele>126.55</ele>
        <time>2010-12-31T07:33:40Z</time>
      </trkpt>
      <trkpt lat="49.00247" lon="1.08919">
        <ele>130.4</ele>
        <time>2010-12-31T07:33:58Z</time>
      </trkpt>
      <trkpt lat="49.00247" lon="1.08917">
        <ele>126.07</ele>
        <time>2010-12-31T07:33:59Z</time>
      </trkpt>
      <trkpt lat="49.00246" lon="1.08913">
        <ele>127.99</ele>
        <time>2010-12-31T07:34:02Z</time>
      </trkpt>
      <trkpt lat="49.00244" lon="1.08911">
        <ele>126.55</ele>
        <time>2010-12-31T07:34:05Z</time>
      </trkpt>
      <trkpt lat="49.00241" lon="1.08908">
        <ele>129.92</ele>
        <time>2010-12-31T07:34:10Z</time>
      </trkpt>
      <trkpt lat="49.00241" lon="1.08907">
        <ele>126.07</ele>
        <time>2010-12-31T07:34:13Z</time>
      </trkpt>
      <trkpt lat="49.00241" lon="1.08905">
        <ele>128.47</ele>
        <time>2010-12-31T07:34:17Z</time>
      </trkpt>
      <trkpt lat="49.00241" lon="1.08905">
        <ele>122.71</ele>
        <time>2010-12-31T07:34:18Z</time>
      </trkpt>
      <trkpt lat="49.00241" lon="1.08905">
        <ele>126.07</ele>
        <time>2010-12-31T07:34:19Z</time>
      </trkpt>
      <trkpt lat="49.00241" lon="1.08905">
        <ele>127.51</ele>
        <time>2010-12-31T07:34:22Z</time>
      </trkpt>
      <trkpt lat="49.0024" lon="1.08905">
        <ele>125.11</ele>
        <time>2010-12-31T07:34:24Z</time>
      </trkpt>
      <trkpt lat="49.0024" lon="1.08905">
        <ele>128.95</ele>
        <time>2010-12-31T07:34:27Z</time>
      </trkpt>
      <trkpt lat="49.0024" lon="1.08905">
        <ele>125.11</ele>
        <time>2010-12-31T07:34:28Z</time>
      </trkpt>
      <trkpt lat="49.00236" lon="1.08907">
        <ele>126.55</ele>
        <time>2010-12-31T07:34:46Z</time>
      </trkpt>
      <trkpt lat="49.00237" lon="1.08906">
        <ele>123.67</ele>
        <time>2010-12-31T07:35:09Z</time>
      </trkpt>
      <trkpt lat="49.00238" lon="1.08909">
        <ele>127.03</ele>
        <time>2010-12-31T07:35:17Z</time>
      </trkpt>
      <trkpt lat="49.00239" lon="1.08909">
        <ele>123.19</ele>
        <time>2010-12-31T07:35:18Z</time>
      </trkpt>
      <trkpt lat="49.00239" lon="1.08909">
        <ele>126.55</ele>
        <time>2010-12-31T07:35:21Z</time>
      </trkpt>
      <trkpt lat="49.00239" lon="1.08909">
        <ele>121.74</ele>
        <time>2010-12-31T07:35:22Z</time>
      </trkpt>
      <trkpt lat="49.0024" lon="1.08909">
        <ele>125.11</ele>
        <time>2010-12-31T07:35:24Z</time>
      </trkpt>
      <trkpt lat="49.0024" lon="1.08909">
        <ele>125.11</ele>
        <time>2010-12-31T07:35:25Z</time>
      </trkpt>
      <trkpt lat="49.00241" lon="1.08909">
        <ele>124.63</ele>
        <time>2010-12-31T07:35:30Z</time>
      </trkpt>
      <trkpt lat="49.00241" lon="1.0891">
        <ele>127.51</ele>
        <time>2010-12-31T07:35:34Z</time>
      </trkpt>
      <trkpt lat="49.00241" lon="1.0891">
        <ele>126.55</ele>
        <time>2010-12-31T07:35:35Z</time>
      </trkpt>
      <trkpt lat="49.00241" lon="1.0891">
        <ele>123.19</ele>
        <time>2010-12-31T07:35:37Z</time>
      </trkpt>
      <trkpt lat="49.00241" lon="1.0891">
        <ele>123.19</ele>
        <time>2010-12-31T07:35:38Z</time>
      </trkpt>
      <trkpt lat="49.00242" lon="1.08907">
        <ele>126.55</ele>
        <time>2010-12-31T07:35:45Z</time>
      </trkpt>
      <trkpt lat="49.00242" lon="1.08907">
        <ele>122.71</ele>
        <time>2010-12-31T07:35:46Z</time>
      </trkpt>
      <trkpt lat="49.00243" lon="1.08906">
        <ele>126.07</ele>
        <time>2010-12-31T07:35:49Z</time>
      </trkpt>
      <trkpt lat="49.00245" lon="1.08912">
        <ele>129.92</ele>
        <time>2010-12-31T07:35:56Z</time>
      </trkpt>
      <trkpt lat="49.00246" lon="1.08914">
        <ele>124.15</ele>
        <time>2010-12-31T07:35:57Z</time>
      </trkpt>
      <trkpt lat="49.00247" lon="1.08918">
        <ele>127.03</ele>
        <time>2010-12-31T07:36:00Z</time>
      </trkpt>
      <trkpt lat="49.00246" lon="1.0892">
        <ele>123.19</ele>
        <time>2010-12-31T07:36:02Z</time>
      </trkpt>
      <trkpt lat="49.00246" lon="1.08921">
        <ele>126.55</ele>
        <time>2010-12-31T07:36:03Z</time>
      </trkpt>
      <trkpt lat="49.00246" lon="1.08921">
        <ele>122.22</ele>
        <time>2010-12-31T07:36:05Z</time>
      </trkpt>
      <trkpt lat="49.00246" lon="1.08921">
        <ele>126.07</ele>
        <time>2010-12-31T07:36:06Z</time>
      </trkpt>
      <trkpt lat="49.00246" lon="1.08921">
        <ele>122.71</ele>
        <time>2010-12-31T07:36:11Z</time>
      </trkpt>
      <trkpt lat="49.00246" lon="1.08921">
        <ele>122.71</ele>
        <time>2010-12-31T07:36:12Z</time>
      </trkpt>
      <trkpt lat="49.00246" lon="1.08921">
        <ele>126.55</ele>
        <time>2010-12-31T07:36:13Z</time>
      </trkpt>
      <trkpt lat="49.00246" lon="1.08921">
        <ele>124.15</ele>
        <time>2010-12-31T07:36:14Z</time>
      </trkpt>
      <trkpt lat="49.00246" lon="1.08921">
        <ele>126.55</ele>
        <time>2010-12-31T07:36:19Z</time>
      </trkpt>
      <trkpt lat="49.00246" lon="1.08921">
        <ele>129.43</ele>
        <time>2010-12-31T07:36:20Z</time>
      </trkpt>
      <trkpt lat="49.00246" lon="1.08924">
        <ele>126.07</ele>
        <time>2010-12-31T07:36:22Z</time>
      </trkpt>
      <trkpt lat="49.00244" lon="1.08929">
        <ele>127.51</ele>
        <time>2010-12-31T07:36:24Z</time>
      </trkpt>
      <trkpt lat="49.00242" lon="1.08937">
        <ele>129.43</ele>
        <time>2010-12-31T07:36:26Z</time>
      </trkpt>
      <trkpt lat="49.00238" lon="1.08943">
        <ele>125.11</ele>
        <time>2010-12-31T07:36:28Z</time>
      </trkpt>
      <trkpt lat="49.00236" lon="1.08946">
        <ele>126.07</ele>
        <time>2010-12-31T07:36:29Z</time>
      </trkpt>
      <trkpt lat="49.00229" lon="1.08947">
        <ele>125.11</ele>
        <time>2010-12-31T07:36:31Z</time>
      </trkpt>
      <trkpt lat="49.00212" lon="1.08946">
        <ele>121.26</ele>
        <time>2010-12-31T07:36:35Z</time>
      </trkpt>
      <trkpt lat="49.002" lon="1.08967">
        <ele>122.71</ele>
        <time>2010-12-31T07:36:41Z</time>
      </trkpt>
      <trkpt lat="49.00201" lon="1.08978">
        <ele>124.63</ele>
        <time>2010-12-31T07:36:43Z</time>
      </trkpt>
      <trkpt lat="49.00206" lon="1.09">
        <ele>124.63</ele>
        <time>2010-12-31T07:36:47Z</time>
      </trkpt>
      <trkpt lat="49.00211" lon="1.09013">
        <ele>127.03</ele>
        <time>2010-12-31T07:36:50Z</time>
      </trkpt>
      <trkpt lat="49.00213" lon="1.09017">
        <ele>122.71</ele>
        <time>2010-12-31T07:36:51Z</time>
      </trkpt>
      <trkpt lat="49.00215" lon="1.09021">
        <ele>125.11</ele>
        <time>2010-12-31T07:36:52Z</time>
      </trkpt>
      <trkpt lat="49.00239" lon="1.09064">
        <ele>123.19</ele>
        <time>2010-12-31T07:37:04Z</time>
      </trkpt>
      <trkpt lat="49.0025" lon="1.09086">
        <ele>125.11</ele>
        <time>2010-12-31T07:37:11Z</time>
      </trkpt>
      <trkpt lat="49.00238" lon="1.09119">
        <ele>128.47</ele>
        <time>2010-12-31T07:37:20Z</time>
      </trkpt>
      <trkpt lat="49.00236" lon="1.09121">
        <ele>126.07</ele>
        <time>2010-12-31T07:37:21Z</time>
      </trkpt>
      <trkpt lat="49.00199" lon="1.09139">
        <ele>125.11</ele>
        <time>2010-12-31T07:37:34Z</time>
      </trkpt>
      <trkpt lat="49.00179" lon="1.09144">
        <ele>128.95</ele>
        <time>2010-12-31T07:37:41Z</time>
      </trkpt>
      <trkpt lat="49.00174" lon="1.09146">
        <ele>124.63</ele>
        <time>2010-12-31T07:37:43Z</time>
      </trkpt>
      <trkpt lat="49.00163" lon="1.09154">
        <ele>124.63</ele>
        <time>2010-12-31T07:37:48Z</time>
      </trkpt>
      <trkpt lat="49.00158" lon="1.09158">
        <ele>127.99</ele>
        <time>2010-12-31T07:37:50Z</time>
      </trkpt>
      <trkpt lat="49.00157" lon="1.0916">
        <ele>124.15</ele>
        <time>2010-12-31T07:37:51Z</time>
      </trkpt>
      <trkpt lat="49.00148" lon="1.09175">
        <ele>127.51</ele>
        <time>2010-12-31T07:37:56Z</time>
      </trkpt>
      <trkpt lat="49.00133" lon="1.09207">
        <ele>124.15</ele>
        <time>2010-12-31T07:38:06Z</time>
      </trkpt>
      <trkpt lat="49.00136" lon="1.09249">
        <ele>123.19</ele>
        <time>2010-12-31T07:38:17Z</time>
      </trkpt>
      <trkpt lat="49.00141" lon="1.09265">
        <ele>127.03</ele>
        <time>2010-12-31T07:38:22Z</time>
      </trkpt>
      <trkpt lat="49.00141" lon="1.09268">
        <ele>126.07</ele>
        <time>2010-12-31T07:38:23Z</time>
      </trkpt>
      <trkpt lat="49.00147" lon="1.09284">
        <ele>120.78</ele>
        <time>2010-12-31T07:38:29Z</time>
      </trkpt>
      <trkpt lat="49.00148" lon="1.09287">
        <ele>125.59</ele>
        <time>2010-12-31T07:38:30Z</time>
      </trkpt>
      <trkpt lat="49.0015" lon="1.09297">
        <ele>121.74</ele>
        <time>2010-12-31T07:38:33Z</time>
      </trkpt>
      <trkpt lat="49.00151" lon="1.09301">
        <ele>125.59</ele>
        <time>2010-12-31T07:38:34Z</time>
      </trkpt>
      <trkpt lat="49.00152" lon="1.09305">
        <ele>126.07</ele>
        <time>2010-12-31T07:38:35Z</time>
      </trkpt>
      <trkpt lat="49.00155" lon="1.09334">
        <ele>121.26</ele>
        <time>2010-12-31T07:38:43Z</time>
      </trkpt>
      <trkpt lat="49.00156" lon="1.09355">
        <ele>118.38</ele>
        <time>2010-12-31T07:38:49Z</time>
      </trkpt>
      <trkpt lat="49.00156" lon="1.09358">
        <ele>121.26</ele>
        <time>2010-12-31T07:38:50Z</time>
      </trkpt>
      <trkpt lat="49.00156" lon="1.09363">
        <ele>117.42</ele>
        <time>2010-12-31T07:38:52Z</time>
      </trkpt>
      <trkpt lat="49.00156" lon="1.09366">
        <ele>119.34</ele>
        <time>2010-12-31T07:38:53Z</time>
      </trkpt>
      <trkpt lat="49.0016" lon="1.09391">
        <ele>115.5</ele>
        <time>2010-12-31T07:39:00Z</time>
      </trkpt>
      <trkpt lat="49.00161" lon="1.09397">
        <ele>114.53</ele>
        <time>2010-12-31T07:39:02Z</time>
      </trkpt>
      <trkpt lat="49.00162" lon="1.09415">
        <ele>111.17</ele>
        <time>2010-12-31T07:39:08Z</time>
      </trkpt>
      <trkpt lat="49.00163" lon="1.09431">
        <ele>110.69</ele>
        <time>2010-12-31T07:39:12Z</time>
      </trkpt>
      <trkpt lat="49.00164" lon="1.0945">
        <ele>106.84</ele>
        <time>2010-12-31T07:39:18Z</time>
      </trkpt>
      <trkpt lat="49.00166" lon="1.09463">
        <ele>105.88</ele>
        <time>2010-12-31T07:39:22Z</time>
      </trkpt>
      <trkpt lat="49.00165" lon="1.09486">
        <ele>103</ele>
        <time>2010-12-31T07:39:28Z</time>
      </trkpt>
      <trkpt lat="49.00165" lon="1.09492">
        <ele>101.56</ele>
        <time>2010-12-31T07:39:30Z</time>
      </trkpt>
      <trkpt lat="49.00167" lon="1.09503">
        <ele>100.11</ele>
        <time>2010-12-31T07:39:34Z</time>
      </trkpt>
      <trkpt lat="49.00168" lon="1.0951">
        <ele>98.67</ele>
        <time>2010-12-31T07:39:36Z</time>
      </trkpt>
      <trkpt lat="49.00169" lon="1.09517">
        <ele>97.71</ele>
        <time>2010-12-31T07:39:38Z</time>
      </trkpt>
      <trkpt lat="49.00169" lon="1.09528">
        <ele>96.75</ele>
        <time>2010-12-31T07:39:41Z</time>
      </trkpt>
      <trkpt lat="49.00168" lon="1.09538">
        <ele>93.39</ele>
        <time>2010-12-31T07:39:44Z</time>
      </trkpt>
      <trkpt lat="49.00168" lon="1.09543">
        <ele>94.83</ele>
        <time>2010-12-31T07:39:45Z</time>
      </trkpt>
      <trkpt lat="49.00165" lon="1.09569">
        <ele>92.9</ele>
        <time>2010-12-31T07:39:51Z</time>
      </trkpt>
      <trkpt lat="49.00164" lon="1.09577">
        <ele>89.54</ele>
        <time>2010-12-31T07:39:53Z</time>
      </trkpt>
      <trkpt lat="49.00165" lon="1.09582">
        <ele>90.5</ele>
        <time>2010-12-31T07:39:54Z</time>
      </trkpt>
      <trkpt lat="49.00165" lon="1.09586">
        <ele>85.21</ele>
        <time>2010-12-31T07:39:55Z</time>
      </trkpt>
      <trkpt lat="49.00165" lon="1.0959">
        <ele>85.21</ele>
        <time>2010-12-31T07:39:56Z</time>
      </trkpt>
      <trkpt lat="49.00165" lon="1.09598">
        <ele>89.06</ele>
        <time>2010-12-31T07:39:58Z</time>
      </trkpt>
      <trkpt lat="49.00165" lon="1.09602">
        <ele>87.14</ele>
        <time>2010-12-31T07:39:59Z</time>
      </trkpt>
      <trkpt lat="49.00164" lon="1.09608">
        <ele>84.25</ele>
        <time>2010-12-31T07:40:01Z</time>
      </trkpt>
      <trkpt lat="49.00164" lon="1.09612">
        <ele>84.25</ele>
        <time>2010-12-31T07:40:02Z</time>
      </trkpt>
      <trkpt lat="49.00163" lon="1.09629">
        <ele>83.29</ele>
        <time>2010-12-31T07:40:06Z</time>
      </trkpt>
      <trkpt lat="49.00163" lon="1.09637">
        <ele>78.48</ele>
        <time>2010-12-31T07:40:08Z</time>
      </trkpt>
      <trkpt lat="49.00163" lon="1.09641">
        <ele>80.89</ele>
        <time>2010-12-31T07:40:09Z</time>
      </trkpt>
      <trkpt lat="49.00163" lon="1.09653">
        <ele>77.52</ele>
        <time>2010-12-31T07:40:12Z</time>
      </trkpt>
      <trkpt lat="49.00163" lon="1.09657">
        <ele>78.48</ele>
        <time>2010-12-31T07:40:13Z</time>
      </trkpt>
      <trkpt lat="49.00164" lon="1.09669">
        <ele>74.16</ele>
        <time>2010-12-31T07:40:16Z</time>
      </trkpt>
      <trkpt lat="49.00165" lon="1.09673">
        <ele>77.52</ele>
        <time>2010-12-31T07:40:17Z</time>
      </trkpt>
      <trkpt lat="49.00167" lon="1.09689">
        <ele>73.68</ele>
        <time>2010-12-31T07:40:21Z</time>
      </trkpt>
      <trkpt lat="49.00173" lon="1.09709">
        <ele>73.68</ele>
        <time>2010-12-31T07:40:26Z</time>
      </trkpt>
      <trkpt lat="49.00175" lon="1.09714">
        <ele>68.39</ele>
        <time>2010-12-31T07:40:27Z</time>
      </trkpt>
      <trkpt lat="49.00176" lon="1.09718">
        <ele>68.87</ele>
        <time>2010-12-31T07:40:28Z</time>
      </trkpt>
      <trkpt lat="49.00179" lon="1.09727">
        <ele>70.79</ele>
        <time>2010-12-31T07:40:30Z</time>
      </trkpt>
      <trkpt lat="49.00182" lon="1.09733">
        <ele>73.2</ele>
        <time>2010-12-31T07:40:32Z</time>
      </trkpt>
      <trkpt lat="49.00186" lon="1.09739">
        <ele>70.31</ele>
        <time>2010-12-31T07:40:34Z</time>
      </trkpt>
      <trkpt lat="49.00188" lon="1.09742">
        <ele>71.27</ele>
        <time>2010-12-31T07:40:35Z</time>
      </trkpt>
      <trkpt lat="49.00206" lon="1.09772">
        <ele>74.64</ele>
        <time>2010-12-31T07:40:46Z</time>
      </trkpt>
      <trkpt lat="49.00208" lon="1.09775">
        <ele>70.79</ele>
        <time>2010-12-31T07:40:47Z</time>
      </trkpt>
      <trkpt lat="49.00229" lon="1.09821">
        <ele>70.79</ele>
        <time>2010-12-31T07:41:02Z</time>
      </trkpt>
      <trkpt lat="49.00238" lon="1.09873">
        <ele>69.35</ele>
        <time>2010-12-31T07:41:16Z</time>
      </trkpt>
      <trkpt lat="49.00237" lon="1.09877">
        <ele>72.24</ele>
        <time>2010-12-31T07:41:17Z</time>
      </trkpt>
      <trkpt lat="49.00236" lon="1.09881">
        <ele>69.35</ele>
        <time>2010-12-31T07:41:18Z</time>
      </trkpt>
      <trkpt lat="49.00215" lon="1.09915">
        <ele>69.83</ele>
        <time>2010-12-31T07:41:31Z</time>
      </trkpt>
      <trkpt lat="49.00213" lon="1.09917">
        <ele>65.99</ele>
        <time>2010-12-31T07:41:32Z</time>
      </trkpt>
      <trkpt lat="49.00211" lon="1.09919">
        <ele>70.79</ele>
        <time>2010-12-31T07:41:33Z</time>
      </trkpt>
      <trkpt lat="49.00197" lon="1.09934">
        <ele>69.35</ele>
        <time>2010-12-31T07:41:40Z</time>
      </trkpt>
      <trkpt lat="49.00166" lon="1.09962">
        <ele>70.79</ele>
        <time>2010-12-31T07:41:55Z</time>
      </trkpt>
      <trkpt lat="49.00156" lon="1.09974">
        <ele>66.95</ele>
        <time>2010-12-31T07:42:00Z</time>
      </trkpt>
      <trkpt lat="49.00154" lon="1.09976">
        <ele>70.31</ele>
        <time>2010-12-31T07:42:01Z</time>
      </trkpt>
      <trkpt lat="49.00128" lon="1.1">
        <ele>66.95</ele>
        <time>2010-12-31T07:42:13Z</time>
      </trkpt>
      <trkpt lat="49.00104" lon="1.1002">
        <ele>69.35</ele>
        <time>2010-12-31T07:42:24Z</time>
      </trkpt>
      <trkpt lat="49.00073" lon="1.10046">
        <ele>66.47</ele>
        <time>2010-12-31T07:42:39Z</time>
      </trkpt>
      <trkpt lat="49.00071" lon="1.10048">
        <ele>66.47</ele>
        <time>2010-12-31T07:42:40Z</time>
      </trkpt>
      <trkpt lat="49.00066" lon="1.1005">
        <ele>68.39</ele>
        <time>2010-12-31T07:42:42Z</time>
      </trkpt>
      <trkpt lat="49.00048" lon="1.10056">
        <ele>70.31</ele>
        <time>2010-12-31T07:42:50Z</time>
      </trkpt>
      <trkpt lat="49.00039" lon="1.10059">
        <ele>66.95</ele>
        <time>2010-12-31T07:42:54Z</time>
      </trkpt>
      <trkpt lat="49.00023" lon="1.10065">
        <ele>70.79</ele>
        <time>2010-12-31T07:43:01Z</time>
      </trkpt>
      <trkpt lat="49.00021" lon="1.10065">
        <ele>69.83</ele>
        <time>2010-12-31T07:43:02Z</time>
      </trkpt>
      <trkpt lat="49.00015" lon="1.10069">
        <ele>68.39</ele>
        <time>2010-12-31T07:43:05Z</time>
      </trkpt>
      <trkpt lat="49" lon="1.10076">
        <ele>71.27</ele>
        <time>2010-12-31T07:43:12Z</time>
      </trkpt>
      <trkpt lat="48.99991" lon="1.10082">
        <ele>66.95</ele>
        <time>2010-12-31T07:43:16Z</time>
      </trkpt>
      <trkpt lat="48.99989" lon="1.10083">
        <ele>70.79</ele>
        <time>2010-12-31T07:43:17Z</time>
      </trkpt>
      <trkpt lat="48.99971" lon="1.10093">
        <ele>69.35</ele>
        <time>2010-12-31T07:43:25Z</time>
      </trkpt>
      <trkpt lat="48.99947" lon="1.10106">
        <ele>67.91</ele>
        <time>2010-12-31T07:43:35Z</time>
      </trkpt>
      <trkpt lat="48.99932" lon="1.10062">
        <ele>67.91</ele>
        <time>2010-12-31T07:43:48Z</time>
      </trkpt>
      <trkpt lat="48.99929" lon="1.10048">
        <ele>66.47</ele>
        <time>2010-12-31T07:43:52Z</time>
      </trkpt>
      <trkpt lat="48.99919" lon="1.10018">
        <ele>66.47</ele>
        <time>2010-12-31T07:44:02Z</time>
      </trkpt>
      <trkpt lat="48.99918" lon="1.10006">
        <ele>68.39</ele>
        <time>2010-12-31T07:44:06Z</time>
      </trkpt>
      <trkpt lat="48.99915" lon="1.09995">
        <ele>67.91</ele>
        <time>2010-12-31T07:44:09Z</time>
      </trkpt>
      <trkpt lat="48.99898" lon="1.09961">
        <ele>68.39</ele>
        <time>2010-12-31T07:44:20Z</time>
      </trkpt>
      <trkpt lat="48.99895" lon="1.09953">
        <ele>66.95</ele>
        <time>2010-12-31T07:44:22Z</time>
      </trkpt>
      <trkpt lat="48.99882" lon="1.09917">
        <ele>67.43</ele>
        <time>2010-12-31T07:44:33Z</time>
      </trkpt>
      <trkpt lat="48.99863" lon="1.09871">
        <ele>67.91</ele>
        <time>2010-12-31T07:44:47Z</time>
      </trkpt>
      <trkpt lat="48.99855" lon="1.09841">
        <ele>65.51</ele>
        <time>2010-12-31T07:44:57Z</time>
      </trkpt>
      <trkpt lat="48.99849" lon="1.0982">
        <ele>66.95</ele>
        <time>2010-12-31T07:45:05Z</time>
      </trkpt>
      <trkpt lat="48.99833" lon="1.09776">
        <ele>68.39</ele>
        <time>2010-12-31T07:45:18Z</time>
      </trkpt>
      <trkpt lat="48.9983" lon="1.09755">
        <ele>65.51</ele>
        <time>2010-12-31T07:45:23Z</time>
      </trkpt>
      <trkpt lat="48.99829" lon="1.09743">
        <ele>68.87</ele>
        <time>2010-12-31T07:45:26Z</time>
      </trkpt>
      <trkpt lat="48.99828" lon="1.09739">
        <ele>65.51</ele>
        <time>2010-12-31T07:45:27Z</time>
      </trkpt>
      <trkpt lat="48.99827" lon="1.09732">
        <ele>68.39</ele>
        <time>2010-12-31T07:45:29Z</time>
      </trkpt>
      <trkpt lat="48.99827" lon="1.09729">
        <ele>67.43</ele>
        <time>2010-12-31T07:45:30Z</time>
      </trkpt>
      <trkpt lat="48.99823" lon="1.09713">
        <ele>65.99</ele>
        <time>2010-12-31T07:45:35Z</time>
      </trkpt>
      <trkpt lat="48.99819" lon="1.09683">
        <ele>68.87</ele>
        <time>2010-12-31T07:45:43Z</time>
      </trkpt>
      <trkpt lat="48.99816" lon="1.09657">
        <ele>65.99</ele>
        <time>2010-12-31T07:45:50Z</time>
      </trkpt>
      <trkpt lat="48.99816" lon="1.09647">
        <ele>67.43</ele>
        <time>2010-12-31T07:45:53Z</time>
      </trkpt>
      <trkpt lat="48.99811" lon="1.096">
        <ele>66.47</ele>
        <time>2010-12-31T07:46:06Z</time>
      </trkpt>
      <trkpt lat="48.99809" lon="1.09575">
        <ele>67.91</ele>
        <time>2010-12-31T07:46:13Z</time>
      </trkpt>
      <trkpt lat="48.99808" lon="1.09567">
        <ele>67.43</ele>
        <time>2010-12-31T07:46:15Z</time>
      </trkpt>
      <trkpt lat="48.99805" lon="1.09553">
        <ele>65.03</ele>
        <time>2010-12-31T07:46:19Z</time>
      </trkpt>
      <trkpt lat="48.99804" lon="1.0955">
        <ele>69.35</ele>
        <time>2010-12-31T07:46:20Z</time>
      </trkpt>
      <trkpt lat="48.99803" lon="1.09546">
        <ele>67.91</ele>
        <time>2010-12-31T07:46:21Z</time>
      </trkpt>
      <trkpt lat="48.99802" lon="1.09543">
        <ele>64.55</ele>
        <time>2010-12-31T07:46:22Z</time>
      </trkpt>
      <trkpt lat="48.99794" lon="1.09518">
        <ele>67.91</ele>
        <time>2010-12-31T07:46:29Z</time>
      </trkpt>
      <trkpt lat="48.99786" lon="1.095">
        <ele>63.58</ele>
        <time>2010-12-31T07:46:35Z</time>
      </trkpt>
      <trkpt lat="48.99785" lon="1.09497">
        <ele>67.43</ele>
        <time>2010-12-31T07:46:36Z</time>
      </trkpt>
      <trkpt lat="48.99769" lon="1.09452">
        <ele>67.43</ele>
        <time>2010-12-31T07:46:50Z</time>
      </trkpt>
      <trkpt lat="48.99754" lon="1.09398">
        <ele>67.43</ele>
        <time>2010-12-31T07:47:06Z</time>
      </trkpt>
      <trkpt lat="48.99753" lon="1.09394">
        <ele>67.91</ele>
        <time>2010-12-31T07:47:07Z</time>
      </trkpt>
      <trkpt lat="48.99751" lon="1.09387">
        <ele>64.07</ele>
        <time>2010-12-31T07:47:09Z</time>
      </trkpt>
      <trkpt lat="48.9975" lon="1.09384">
        <ele>67.91</ele>
        <time>2010-12-31T07:47:10Z</time>
      </trkpt>
      <trkpt lat="48.99749" lon="1.0938">
        <ele>67.43</ele>
        <time>2010-12-31T07:47:11Z</time>
      </trkpt>
      <trkpt lat="48.99737" lon="1.09335">
        <ele>68.87</ele>
        <time>2010-12-31T07:47:25Z</time>
      </trkpt>
      <trkpt lat="48.99735" lon="1.09328">
        <ele>68.39</ele>
        <time>2010-12-31T07:47:27Z</time>
      </trkpt>
      <trkpt lat="48.99725" lon="1.09298">
        <ele>67.43</ele>
        <time>2010-12-31T07:47:36Z</time>
      </trkpt>
      <trkpt lat="48.99722" lon="1.09281">
        <ele>68.39</ele>
        <time>2010-12-31T07:47:41Z</time>
      </trkpt>
      <trkpt lat="48.99719" lon="1.09266">
        <ele>69.83</ele>
        <time>2010-12-31T07:47:46Z</time>
      </trkpt>
      <trkpt lat="48.99717" lon="1.09261">
        <ele>67.43</ele>
        <time>2010-12-31T07:47:48Z</time>
      </trkpt>
      <trkpt lat="48.99713" lon="1.09231">
        <ele>67.43</ele>
        <time>2010-12-31T07:47:58Z</time>
      </trkpt>
      <trkpt lat="48.9971" lon="1.09217">
        <ele>68.39</ele>
        <time>2010-12-31T07:48:02Z</time>
      </trkpt>
      <trkpt lat="48.99707" lon="1.0921">
        <ele>69.35</ele>
        <time>2010-12-31T07:48:04Z</time>
      </trkpt>
      <trkpt lat="48.99695" lon="1.09171">
        <ele>68.39</ele>
        <time>2010-12-31T07:48:15Z</time>
      </trkpt>
      <trkpt lat="48.9968" lon="1.09134">
        <ele>68.87</ele>
        <time>2010-12-31T07:48:26Z</time>
      </trkpt>
      <trkpt lat="48.99673" lon="1.09105">
        <ele>68.87</ele>
        <time>2010-12-31T07:48:36Z</time>
      </trkpt>
      <trkpt lat="48.99663" lon="1.0907">
        <ele>71.76</ele>
        <time>2010-12-31T07:48:46Z</time>
      </trkpt>
      <trkpt lat="48.9966" lon="1.09054">
        <ele>69.35</ele>
        <time>2010-12-31T07:48:50Z</time>
      </trkpt>
      <trkpt lat="48.99658" lon="1.09027">
        <ele>68.39</ele>
        <time>2010-12-31T07:48:57Z</time>
      </trkpt>
      <trkpt lat="48.99655" lon="1.09012">
        <ele>69.83</ele>
        <time>2010-12-31T07:49:01Z</time>
      </trkpt>
      <trkpt lat="48.99649" lon="1.08985">
        <ele>69.83</ele>
        <time>2010-12-31T07:49:08Z</time>
      </trkpt>
      <trkpt lat="48.99639" lon="1.08959">
        <ele>65.99</ele>
        <time>2010-12-31T07:49:16Z</time>
      </trkpt>
      <trkpt lat="48.99636" lon="1.08948">
        <ele>69.83</ele>
        <time>2010-12-31T07:49:19Z</time>
      </trkpt>
      <trkpt lat="48.99632" lon="1.0894">
        <ele>66.95</ele>
        <time>2010-12-31T07:49:22Z</time>
      </trkpt>
      <trkpt lat="48.99628" lon="1.08928">
        <ele>70.31</ele>
        <time>2010-12-31T07:49:26Z</time>
      </trkpt>
      <trkpt lat="48.99625" lon="1.08919">
        <ele>67.91</ele>
        <time>2010-12-31T07:49:29Z</time>
      </trkpt>
      <trkpt lat="48.99608" lon="1.08868">
        <ele>67.91</ele>
        <time>2010-12-31T07:49:44Z</time>
      </trkpt>
      <trkpt lat="48.99604" lon="1.08858">
        <ele>69.35</ele>
        <time>2010-12-31T07:49:47Z</time>
      </trkpt>
      <trkpt lat="48.99594" lon="1.08829">
        <ele>69.83</ele>
        <time>2010-12-31T07:49:56Z</time>
      </trkpt>
      <trkpt lat="48.9959" lon="1.08814">
        <ele>67.91</ele>
        <time>2010-12-31T07:50:01Z</time>
      </trkpt>
      <trkpt lat="48.99588" lon="1.08801">
        <ele>69.83</ele>
        <time>2010-12-31T07:50:06Z</time>
      </trkpt>
      <trkpt lat="48.99587" lon="1.08795">
        <ele>68.39</ele>
        <time>2010-12-31T07:50:08Z</time>
      </trkpt>
      <trkpt lat="48.99581" lon="1.08763">
        <ele>72.72</ele>
        <time>2010-12-31T07:50:18Z</time>
      </trkpt>
      <trkpt lat="48.9958" lon="1.0876">
        <ele>68.39</ele>
        <time>2010-12-31T07:50:19Z</time>
      </trkpt>
      <trkpt lat="48.9957" lon="1.08735">
        <ele>68.39</ele>
        <time>2010-12-31T07:50:27Z</time>
      </trkpt>
      <trkpt lat="48.99567" lon="1.08722">
        <ele>71.76</ele>
        <time>2010-12-31T07:50:31Z</time>
      </trkpt>
      <trkpt lat="48.99566" lon="1.08716">
        <ele>70.31</ele>
        <time>2010-12-31T07:50:33Z</time>
      </trkpt>
      <trkpt lat="48.99566" lon="1.08712">
        <ele>66.95</ele>
        <time>2010-12-31T07:50:34Z</time>
      </trkpt>
      <trkpt lat="48.99566" lon="1.08709">
        <ele>65.99</ele>
        <time>2010-12-31T07:50:35Z</time>
      </trkpt>
      <trkpt lat="48.99561" lon="1.0869">
        <ele>71.27</ele>
        <time>2010-12-31T07:50:41Z</time>
      </trkpt>
      <trkpt lat="48.9956" lon="1.08686">
        <ele>68.39</ele>
        <time>2010-12-31T07:50:42Z</time>
      </trkpt>
      <trkpt lat="48.99556" lon="1.08678">
        <ele>66.47</ele>
        <time>2010-12-31T07:50:44Z</time>
      </trkpt>
      <trkpt lat="48.99554" lon="1.08674">
        <ele>71.27</ele>
        <time>2010-12-31T07:50:45Z</time>
      </trkpt>
      <trkpt lat="48.99553" lon="1.0867">
        <ele>70.79</ele>
        <time>2010-12-31T07:50:46Z</time>
      </trkpt>
      <trkpt lat="48.99551" lon="1.08664">
        <ele>68.39</ele>
        <time>2010-12-31T07:50:48Z</time>
      </trkpt>
      <trkpt lat="48.99548" lon="1.08654">
        <ele>71.76</ele>
        <time>2010-12-31T07:50:51Z</time>
      </trkpt>
      <trkpt lat="48.99548" lon="1.08651">
        <ele>66.95</ele>
        <time>2010-12-31T07:50:52Z</time>
      </trkpt>
      <trkpt lat="48.9954" lon="1.08626">
        <ele>71.76</ele>
        <time>2010-12-31T07:50:59Z</time>
      </trkpt>
      <trkpt lat="48.99537" lon="1.08606">
        <ele>67.43</ele>
        <time>2010-12-31T07:51:05Z</time>
      </trkpt>
      <trkpt lat="48.99536" lon="1.086">
        <ele>70.79</ele>
        <time>2010-12-31T07:51:07Z</time>
      </trkpt>
      <trkpt lat="48.99531" lon="1.08569">
        <ele>66.47</ele>
        <time>2010-12-31T07:51:16Z</time>
      </trkpt>
      <trkpt lat="48.99531" lon="1.08565">
        <ele>71.76</ele>
        <time>2010-12-31T07:51:17Z</time>
      </trkpt>
      <trkpt lat="48.99527" lon="1.08537">
        <ele>68.39</ele>
        <time>2010-12-31T07:51:25Z</time>
      </trkpt>
      <trkpt lat="48.99524" lon="1.0852">
        <ele>72.24</ele>
        <time>2010-12-31T07:51:30Z</time>
      </trkpt>
      <trkpt lat="48.99524" lon="1.08517">
        <ele>71.27</ele>
        <time>2010-12-31T07:51:31Z</time>
      </trkpt>
      <trkpt lat="48.99524" lon="1.08511">
        <ele>67.91</ele>
        <time>2010-12-31T07:51:33Z</time>
      </trkpt>
      <trkpt lat="48.99523" lon="1.08502">
        <ele>71.76</ele>
        <time>2010-12-31T07:51:36Z</time>
      </trkpt>
      <trkpt lat="48.99523" lon="1.08498">
        <ele>68.39</ele>
        <time>2010-12-31T07:51:37Z</time>
      </trkpt>
      <trkpt lat="48.99522" lon="1.08495">
        <ele>68.39</ele>
        <time>2010-12-31T07:51:38Z</time>
      </trkpt>
      <trkpt lat="48.99521" lon="1.08489">
        <ele>71.76</ele>
        <time>2010-12-31T07:51:40Z</time>
      </trkpt>
      <trkpt lat="48.9952" lon="1.08486">
        <ele>69.83</ele>
        <time>2010-12-31T07:51:41Z</time>
      </trkpt>
      <trkpt lat="48.99517" lon="1.08468">
        <ele>68.39</ele>
        <time>2010-12-31T07:51:46Z</time>
      </trkpt>
      <trkpt lat="48.99516" lon="1.08464">
        <ele>72.24</ele>
        <time>2010-12-31T07:51:47Z</time>
      </trkpt>
      <trkpt lat="48.99516" lon="1.0846">
        <ele>69.83</ele>
        <time>2010-12-31T07:51:48Z</time>
      </trkpt>
      <trkpt lat="48.99512" lon="1.08443">
        <ele>69.83</ele>
        <time>2010-12-31T07:51:53Z</time>
      </trkpt>
      <trkpt lat="48.99508" lon="1.08423">
        <ele>69.83</ele>
        <time>2010-12-31T07:51:59Z</time>
      </trkpt>
      <trkpt lat="48.99512" lon="1.084">
        <ele>69.83</ele>
        <time>2010-12-31T07:52:06Z</time>
      </trkpt>
      <trkpt lat="48.99502" lon="1.08363">
        <ele>67.91</ele>
        <time>2010-12-31T07:52:18Z</time>
      </trkpt>
      <trkpt lat="48.99499" lon="1.08357">
        <ele>71.27</ele>
        <time>2010-12-31T07:52:20Z</time>
      </trkpt>
      <trkpt lat="48.99494" lon="1.08335">
        <ele>66.95</ele>
        <time>2010-12-31T07:52:27Z</time>
      </trkpt>
      <trkpt lat="48.99493" lon="1.08331">
        <ele>70.31</ele>
        <time>2010-12-31T07:52:28Z</time>
      </trkpt>
      <trkpt lat="48.99485" lon="1.08289">
        <ele>72.24</ele>
        <time>2010-12-31T07:52:40Z</time>
      </trkpt>
      <trkpt lat="48.99482" lon="1.08268">
        <ele>68.87</ele>
        <time>2010-12-31T07:52:46Z</time>
      </trkpt>
      <trkpt lat="48.99473" lon="1.08235">
        <ele>70.79</ele>
        <time>2010-12-31T07:52:56Z</time>
      </trkpt>
      <trkpt lat="48.99467" lon="1.08195">
        <ele>71.27</ele>
        <time>2010-12-31T07:53:08Z</time>
      </trkpt>
      <trkpt lat="48.99459" lon="1.08159">
        <ele>67.91</ele>
        <time>2010-12-31T07:53:18Z</time>
      </trkpt>
      <trkpt lat="48.99451" lon="1.0813">
        <ele>71.27</ele>
        <time>2010-12-31T07:53:26Z</time>
      </trkpt>
      <trkpt lat="48.9945" lon="1.08126">
        <ele>71.27</ele>
        <time>2010-12-31T07:53:27Z</time>
      </trkpt>
      <trkpt lat="48.99447" lon="1.08077">
        <ele>69.83</ele>
        <time>2010-12-31T07:53:41Z</time>
      </trkpt>
      <trkpt lat="48.99446" lon="1.08027">
        <ele>70.31</ele>
        <time>2010-12-31T07:53:55Z</time>
      </trkpt>
      <trkpt lat="48.99447" lon="1.07989">
        <ele>72.72</ele>
        <time>2010-12-31T07:54:06Z</time>
      </trkpt>
      <trkpt lat="48.99447" lon="1.07985">
        <ele>68.39</ele>
        <time>2010-12-31T07:54:07Z</time>
      </trkpt>
      <trkpt lat="48.99447" lon="1.07982">
        <ele>69.35</ele>
        <time>2010-12-31T07:54:08Z</time>
      </trkpt>
      <trkpt lat="48.99448" lon="1.07942">
        <ele>71.76</ele>
        <time>2010-12-31T07:54:20Z</time>
      </trkpt>
      <trkpt lat="48.99447" lon="1.07916">
        <ele>68.39</ele>
        <time>2010-12-31T07:54:27Z</time>
      </trkpt>
      <trkpt lat="48.99445" lon="1.07893">
        <ele>71.76</ele>
        <time>2010-12-31T07:54:33Z</time>
      </trkpt>
      <trkpt lat="48.99445" lon="1.07886">
        <ele>68.39</ele>
        <time>2010-12-31T07:54:35Z</time>
      </trkpt>
      <trkpt lat="48.99445" lon="1.07883">
        <ele>69.83</ele>
        <time>2010-12-31T07:54:36Z</time>
      </trkpt>
      <trkpt lat="48.99446" lon="1.07875">
        <ele>70.79</ele>
        <time>2010-12-31T07:54:38Z</time>
      </trkpt>
      <trkpt lat="48.99451" lon="1.07829">
        <ele>70.31</ele>
        <time>2010-12-31T07:54:51Z</time>
      </trkpt>
      <trkpt lat="48.9945" lon="1.07788">
        <ele>71.27</ele>
        <time>2010-12-31T07:55:03Z</time>
      </trkpt>
      <trkpt lat="48.99449" lon="1.0774">
        <ele>70.31</ele>
        <time>2010-12-31T07:55:16Z</time>
      </trkpt>
      <trkpt lat="48.99451" lon="1.0773">
        <ele>71.76</ele>
        <time>2010-12-31T07:55:19Z</time>
      </trkpt>
      <trkpt lat="48.99446" lon="1.07678">
        <ele>70.31</ele>
        <time>2010-12-31T07:55:33Z</time>
      </trkpt>
      <trkpt lat="48.99446" lon="1.07667">
        <ele>72.24</ele>
        <time>2010-12-31T07:55:36Z</time>
      </trkpt>
      <trkpt lat="48.99445" lon="1.07625">
        <ele>72.24</ele>
        <time>2010-12-31T07:55:48Z</time>
      </trkpt>
      <trkpt lat="48.99446" lon="1.07592">
        <ele>68.87</ele>
        <time>2010-12-31T07:55:57Z</time>
      </trkpt>
      <trkpt lat="48.99447" lon="1.07577">
        <ele>72.24</ele>
        <time>2010-12-31T07:56:01Z</time>
      </trkpt>
      <trkpt lat="48.9945" lon="1.0754">
        <ele>71.27</ele>
        <time>2010-12-31T07:56:11Z</time>
      </trkpt>
      <trkpt lat="48.9945" lon="1.0752">
        <ele>69.83</ele>
        <time>2010-12-31T07:56:16Z</time>
      </trkpt>
      <trkpt lat="48.9945" lon="1.07498">
        <ele>69.83</ele>
        <time>2010-12-31T07:56:22Z</time>
      </trkpt>
      <trkpt lat="48.99451" lon="1.07491">
        <ele>72.24</ele>
        <time>2010-12-31T07:56:24Z</time>
      </trkpt>
      <trkpt lat="48.99452" lon="1.07478">
        <ele>68.87</ele>
        <time>2010-12-31T07:56:28Z</time>
      </trkpt>
      <trkpt lat="48.99452" lon="1.07474">
        <ele>72.24</ele>
        <time>2010-12-31T07:56:29Z</time>
      </trkpt>
      <trkpt lat="48.99451" lon="1.07449">
        <ele>71.27</ele>
        <time>2010-12-31T07:56:36Z</time>
      </trkpt>
      <trkpt lat="48.99451" lon="1.0743">
        <ele>72.24</ele>
        <time>2010-12-31T07:56:41Z</time>
      </trkpt>
      <trkpt lat="48.9945" lon="1.07378">
        <ele>71.76</ele>
        <time>2010-12-31T07:56:56Z</time>
      </trkpt>
      <trkpt lat="48.9945" lon="1.07351">
        <ele>70.79</ele>
        <time>2010-12-31T07:57:04Z</time>
      </trkpt>
      <trkpt lat="48.99451" lon="1.07304">
        <ele>71.76</ele>
        <time>2010-12-31T07:57:16Z</time>
      </trkpt>
      <trkpt lat="48.99451" lon="1.07298">
        <ele>70.31</ele>
        <time>2010-12-31T07:57:18Z</time>
      </trkpt>
      <trkpt lat="48.9945" lon="1.07239">
        <ele>71.27</ele>
        <time>2010-12-31T07:57:34Z</time>
      </trkpt>
      <trkpt lat="48.9945" lon="1.07231">
        <ele>72.72</ele>
        <time>2010-12-31T07:57:36Z</time>
      </trkpt>
      <trkpt lat="48.99451" lon="1.07186">
        <ele>71.76</ele>
        <time>2010-12-31T07:57:48Z</time>
      </trkpt>
      <trkpt lat="48.99451" lon="1.07176">
        <ele>70.79</ele>
        <time>2010-12-31T07:57:51Z</time>
      </trkpt>
      <trkpt lat="48.99449" lon="1.07134">
        <ele>72.24</ele>
        <time>2010-12-31T07:58:03Z</time>
      </trkpt>
      <trkpt lat="48.99449" lon="1.07131">
        <ele>72.24</ele>
        <time>2010-12-31T07:58:04Z</time>
      </trkpt>
      <trkpt lat="48.99449" lon="1.07092">
        <ele>72.24</ele>
        <time>2010-12-31T07:58:16Z</time>
      </trkpt>
      <trkpt lat="48.99451" lon="1.0708">
        <ele>71.27</ele>
        <time>2010-12-31T07:58:20Z</time>
      </trkpt>
      <trkpt lat="48.99453" lon="1.07071">
        <ele>69.83</ele>
        <time>2010-12-31T07:58:23Z</time>
      </trkpt>
      <trkpt lat="48.99455" lon="1.07037">
        <ele>71.76</ele>
        <time>2010-12-31T07:58:34Z</time>
      </trkpt>
      <trkpt lat="48.99454" lon="1.06989">
        <ele>71.27</ele>
        <time>2010-12-31T07:58:47Z</time>
      </trkpt>
      <trkpt lat="48.99452" lon="1.06973">
        <ele>72.24</ele>
        <time>2010-12-31T07:58:51Z</time>
      </trkpt>
      <trkpt lat="48.99451" lon="1.06924">
        <ele>71.76</ele>
        <time>2010-12-31T07:59:05Z</time>
      </trkpt>
      <trkpt lat="48.9945" lon="1.06901">
        <ele>70.79</ele>
        <time>2010-12-31T07:59:12Z</time>
      </trkpt>
      <trkpt lat="48.99449" lon="1.06891">
        <ele>72.24</ele>
        <time>2010-12-31T07:59:15Z</time>
      </trkpt>
      <trkpt lat="48.99449" lon="1.06864">
        <ele>71.76</ele>
        <time>2010-12-31T07:59:23Z</time>
      </trkpt>
      <trkpt lat="48.99451" lon="1.06823">
        <ele>71.76</ele>
        <time>2010-12-31T07:59:36Z</time>
      </trkpt>
      <trkpt lat="48.99452" lon="1.06779">
        <ele>72.24</ele>
        <time>2010-12-31T07:59:49Z</time>
      </trkpt>
      <trkpt lat="48.99447" lon="1.0672">
        <ele>71.27</ele>
        <time>2010-12-31T08:00:05Z</time>
      </trkpt>
      <trkpt lat="48.99447" lon="1.06717">
        <ele>71.27</ele>
        <time>2010-12-31T08:00:06Z</time>
      </trkpt>
      <trkpt lat="48.99449" lon="1.06704">
        <ele>71.27</ele>
        <time>2010-12-31T08:00:10Z</time>
      </trkpt>
      <trkpt lat="48.9945" lon="1.06694">
        <ele>71.27</ele>
        <time>2010-12-31T08:00:13Z</time>
      </trkpt>
      <trkpt lat="48.99452" lon="1.06671">
        <ele>72.72</ele>
        <time>2010-12-31T08:00:20Z</time>
      </trkpt>
      <trkpt lat="48.9946" lon="1.06652">
        <ele>71.76</ele>
        <time>2010-12-31T08:00:28Z</time>
      </trkpt>
      <trkpt lat="48.99469" lon="1.06634">
        <ele>71.76</ele>
        <time>2010-12-31T08:00:35Z</time>
      </trkpt>
      <trkpt lat="48.99479" lon="1.06593">
        <ele>71.76</ele>
        <time>2010-12-31T08:00:48Z</time>
      </trkpt>
      <trkpt lat="48.99486" lon="1.06558">
        <ele>71.76</ele>
        <time>2010-12-31T08:00:58Z</time>
      </trkpt>
      <trkpt lat="48.99491" lon="1.06533">
        <ele>71.27</ele>
        <time>2010-12-31T08:01:06Z</time>
      </trkpt>
      <trkpt lat="48.99487" lon="1.0651">
        <ele>71.76</ele>
        <time>2010-12-31T08:01:12Z</time>
      </trkpt>
      <trkpt lat="48.99482" lon="1.06475">
        <ele>71.76</ele>
        <time>2010-12-31T08:01:24Z</time>
      </trkpt>
      <trkpt lat="48.99478" lon="1.06436">
        <ele>71.76</ele>
        <time>2010-12-31T08:01:35Z</time>
      </trkpt>
      <trkpt lat="48.99478" lon="1.06422">
        <ele>71.27</ele>
        <time>2010-12-31T08:01:39Z</time>
      </trkpt>
      <trkpt lat="48.99479" lon="1.06413">
        <ele>71.27</ele>
        <time>2010-12-31T08:01:43Z</time>
      </trkpt>
      <trkpt lat="48.99489" lon="1.0639">
        <ele>71.76</ele>
        <time>2010-12-31T08:01:54Z</time>
      </trkpt>
      <trkpt lat="48.99496" lon="1.0638">
        <ele>71.27</ele>
        <time>2010-12-31T08:02:00Z</time>
      </trkpt>
      <trkpt lat="48.99504" lon="1.06375">
        <ele>72.24</ele>
        <time>2010-12-31T08:02:03Z</time>
      </trkpt>
      <trkpt lat="48.99512" lon="1.06371">
        <ele>72.24</ele>
        <time>2010-12-31T08:02:07Z</time>
      </trkpt>
      <trkpt lat="48.99517" lon="1.06353">
        <ele>71.27</ele>
        <time>2010-12-31T08:02:13Z</time>
      </trkpt>
      <trkpt lat="48.99537" lon="1.06307">
        <ele>71.27</ele>
        <time>2010-12-31T08:02:26Z</time>
      </trkpt>
      <trkpt lat="48.99559" lon="1.06278">
        <ele>71.27</ele>
        <time>2010-12-31T08:02:38Z</time>
      </trkpt>
      <trkpt lat="48.99569" lon="1.06269">
        <ele>70.79</ele>
        <time>2010-12-31T08:02:43Z</time>
      </trkpt>
      <trkpt lat="48.99594" lon="1.06268">
        <ele>70.79</ele>
        <time>2010-12-31T08:02:54Z</time>
      </trkpt>
      <trkpt lat="48.99622" lon="1.06267">
        <ele>71.76</ele>
        <time>2010-12-31T08:03:06Z</time>
      </trkpt>
      <trkpt lat="48.99649" lon="1.06266">
        <ele>71.76</ele>
        <time>2010-12-31T08:03:17Z</time>
      </trkpt>
      <trkpt lat="48.99666" lon="1.06261">
        <ele>71.76</ele>
        <time>2010-12-31T08:03:25Z</time>
      </trkpt>
      <trkpt lat="48.99678" lon="1.06232">
        <ele>72.24</ele>
        <time>2010-12-31T08:03:35Z</time>
      </trkpt>
      <trkpt lat="48.99687" lon="1.06195">
        <ele>71.76</ele>
        <time>2010-12-31T08:03:46Z</time>
      </trkpt>
      <trkpt lat="48.99692" lon="1.06156">
        <ele>71.76</ele>
        <time>2010-12-31T08:03:57Z</time>
      </trkpt>
      <trkpt lat="48.99691" lon="1.06127">
        <ele>72.24</ele>
        <time>2010-12-31T08:04:05Z</time>
      </trkpt>
      <trkpt lat="48.99679" lon="1.06093">
        <ele>72.24</ele>
        <time>2010-12-31T08:04:17Z</time>
      </trkpt>
      <trkpt lat="48.99665" lon="1.06061">
        <ele>72.72</ele>
        <time>2010-12-31T08:04:28Z</time>
      </trkpt>
      <trkpt lat="48.99634" lon="1.06025">
        <ele>72.72</ele>
        <time>2010-12-31T08:04:43Z</time>
      </trkpt>
      <trkpt lat="48.99604" lon="1.06003">
        <ele>73.68</ele>
        <time>2010-12-31T08:04:57Z</time>
      </trkpt>
      <trkpt lat="48.99586" lon="1.05975">
        <ele>73.2</ele>
        <time>2010-12-31T08:05:08Z</time>
      </trkpt>
      <trkpt lat="48.99579" lon="1.05948">
        <ele>74.16</ele>
        <time>2010-12-31T08:05:19Z</time>
      </trkpt>
      <trkpt lat="48.99577" lon="1.05943">
        <ele>72.24</ele>
        <time>2010-12-31T08:05:21Z</time>
      </trkpt>
      <trkpt lat="48.9956" lon="1.05904">
        <ele>73.2</ele>
        <time>2010-12-31T08:05:34Z</time>
      </trkpt>
      <trkpt lat="48.99532" lon="1.05857">
        <ele>73.2</ele>
        <time>2010-12-31T08:05:50Z</time>
      </trkpt>
      <trkpt lat="48.99499" lon="1.05824">
        <ele>73.2</ele>
        <time>2010-12-31T08:06:05Z</time>
      </trkpt>
      <trkpt lat="48.99474" lon="1.05803">
        <ele>74.64</ele>
        <time>2010-12-31T08:06:17Z</time>
      </trkpt>
      <trkpt lat="48.99468" lon="1.05767">
        <ele>73.2</ele>
        <time>2010-12-31T08:06:28Z</time>
      </trkpt>
      <trkpt lat="48.99466" lon="1.05756">
        <ele>73.2</ele>
        <time>2010-12-31T08:06:31Z</time>
      </trkpt>
      <trkpt lat="48.99465" lon="1.05742">
        <ele>73.2</ele>
        <time>2010-12-31T08:06:35Z</time>
      </trkpt>
      <trkpt lat="48.99464" lon="1.05727">
        <ele>73.68</ele>
        <time>2010-12-31T08:06:39Z</time>
      </trkpt>
      <trkpt lat="48.99463" lon="1.05713">
        <ele>74.16</ele>
        <time>2010-12-31T08:06:43Z</time>
      </trkpt>
      <trkpt lat="48.99452" lon="1.05665">
        <ele>73.68</ele>
        <time>2010-12-31T08:06:56Z</time>
      </trkpt>
      <trkpt lat="48.99451" lon="1.05662">
        <ele>74.16</ele>
        <time>2010-12-31T08:06:57Z</time>
      </trkpt>
      <trkpt lat="48.9945" lon="1.05647">
        <ele>74.16</ele>
        <time>2010-12-31T08:07:01Z</time>
      </trkpt>
      <trkpt lat="48.99449" lon="1.05628">
        <ele>75.12</ele>
        <time>2010-12-31T08:07:07Z</time>
      </trkpt>
      <trkpt lat="48.99458" lon="1.0557">
        <ele>75.12</ele>
        <time>2010-12-31T08:07:24Z</time>
      </trkpt>
      <trkpt lat="48.99481" lon="1.05536">
        <ele>75.12</ele>
        <time>2010-12-31T08:07:37Z</time>
      </trkpt>
      <trkpt lat="48.99504" lon="1.05511">
        <ele>75.12</ele>
        <time>2010-12-31T08:07:48Z</time>
      </trkpt>
      <trkpt lat="48.99529" lon="1.05506">
        <ele>74.64</ele>
        <time>2010-12-31T08:07:59Z</time>
      </trkpt>
      <trkpt lat="48.99546" lon="1.05544">
        <ele>75.6</ele>
        <time>2010-12-31T08:08:12Z</time>
      </trkpt>
      <trkpt lat="48.99533" lon="1.05587">
        <ele>77.04</ele>
        <time>2010-12-31T08:08:25Z</time>
      </trkpt>
      <trkpt lat="48.99505" lon="1.05613">
        <ele>78.48</ele>
        <time>2010-12-31T08:08:40Z</time>
      </trkpt>
      <trkpt lat="48.99474" lon="1.05624">
        <ele>80.89</ele>
        <time>2010-12-31T08:08:55Z</time>
      </trkpt>
      <trkpt lat="48.99444" lon="1.05627">
        <ele>81.85</ele>
        <time>2010-12-31T08:09:09Z</time>
      </trkpt>
      <trkpt lat="48.99412" lon="1.05632">
        <ele>82.81</ele>
        <time>2010-12-31T08:09:23Z</time>
      </trkpt>
      <trkpt lat="48.99379" lon="1.05636">
        <ele>79.45</ele>
        <time>2010-12-31T08:09:36Z</time>
      </trkpt>
      <trkpt lat="48.99362" lon="1.05638">
        <ele>78.97</ele>
        <time>2010-12-31T08:09:42Z</time>
      </trkpt>
      <trkpt lat="48.99331" lon="1.05639">
        <ele>78</ele>
        <time>2010-12-31T08:09:55Z</time>
      </trkpt>
      <trkpt lat="48.99303" lon="1.05635">
        <ele>79.45</ele>
        <time>2010-12-31T08:10:08Z</time>
      </trkpt>
      <trkpt lat="48.99277" lon="1.05623">
        <ele>82.81</ele>
        <time>2010-12-31T08:10:21Z</time>
      </trkpt>
      <trkpt lat="48.99266" lon="1.05617">
        <ele>83.29</ele>
        <time>2010-12-31T08:10:27Z</time>
      </trkpt>
      <trkpt lat="48.99244" lon="1.05611">
        <ele>85.69</ele>
        <time>2010-12-31T08:10:38Z</time>
      </trkpt>
      <trkpt lat="48.99223" lon="1.05606">
        <ele>88.1</ele>
        <time>2010-12-31T08:10:50Z</time>
      </trkpt>
      <trkpt lat="48.99205" lon="1.05603">
        <ele>89.06</ele>
        <time>2010-12-31T08:10:59Z</time>
      </trkpt>
      <trkpt lat="48.99196" lon="1.05601">
        <ele>90.02</ele>
        <time>2010-12-31T08:11:04Z</time>
      </trkpt>
      <trkpt lat="48.99187" lon="1.05605">
        <ele>90.98</ele>
        <time>2010-12-31T08:11:10Z</time>
      </trkpt>
      <trkpt lat="48.99171" lon="1.05609">
        <ele>92.42</ele>
        <time>2010-12-31T08:11:20Z</time>
      </trkpt>
      <trkpt lat="48.99155" lon="1.05612">
        <ele>94.83</ele>
        <time>2010-12-31T08:11:27Z</time>
      </trkpt>
      <trkpt lat="48.99148" lon="1.05625">
        <ele>94.83</ele>
        <time>2010-12-31T08:11:33Z</time>
      </trkpt>
      <trkpt lat="48.99144" lon="1.05646">
        <ele>95.79</ele>
        <time>2010-12-31T08:11:41Z</time>
      </trkpt>
      <trkpt lat="48.99143" lon="1.0565">
        <ele>95.79</ele>
        <time>2010-12-31T08:11:43Z</time>
      </trkpt>
      <trkpt lat="48.99141" lon="1.05655">
        <ele>96.27</ele>
        <time>2010-12-31T08:11:46Z</time>
      </trkpt>
      <trkpt lat="48.99135" lon="1.05659">
        <ele>98.19</ele>
        <time>2010-12-31T08:11:53Z</time>
      </trkpt>
      <trkpt lat="48.99129" lon="1.05657">
        <ele>99.15</ele>
        <time>2010-12-31T08:11:57Z</time>
      </trkpt>
      <trkpt lat="48.99127" lon="1.05657">
        <ele>98.67</ele>
        <time>2010-12-31T08:11:59Z</time>
      </trkpt>
      <trkpt lat="48.99113" lon="1.05648">
        <ele>100.11</ele>
        <time>2010-12-31T08:12:07Z</time>
      </trkpt>
      <trkpt lat="48.9911" lon="1.05642">
        <ele>103</ele>
        <time>2010-12-31T08:12:10Z</time>
      </trkpt>
      <trkpt lat="48.99109" lon="1.0564">
        <ele>102.52</ele>
        <time>2010-12-31T08:12:11Z</time>
      </trkpt>
      <trkpt lat="48.99108" lon="1.05637">
        <ele>101.08</ele>
        <time>2010-12-31T08:12:13Z</time>
      </trkpt>
      <trkpt lat="48.99105" lon="1.05632">
        <ele>102.52</ele>
        <time>2010-12-31T08:12:16Z</time>
      </trkpt>
      <trkpt lat="48.99096" lon="1.05607">
        <ele>106.36</ele>
        <time>2010-12-31T08:12:28Z</time>
      </trkpt>
      <trkpt lat="48.99088" lon="1.05597">
        <ele>107.32</ele>
        <time>2010-12-31T08:12:36Z</time>
      </trkpt>
      <trkpt lat="48.99082" lon="1.05592">
        <ele>106.36</ele>
        <time>2010-12-31T08:12:40Z</time>
      </trkpt>
      <trkpt lat="48.99061" lon="1.05577">
        <ele>108.29</ele>
        <time>2010-12-31T08:12:52Z</time>
      </trkpt>
      <trkpt lat="48.99039" lon="1.0557">
        <ele>109.73</ele>
        <time>2010-12-31T08:13:05Z</time>
      </trkpt>
      <trkpt lat="48.99011" lon="1.05566">
        <ele>113.57</ele>
        <time>2010-12-31T08:13:17Z</time>
      </trkpt>
      <trkpt lat="48.9899" lon="1.05567">
        <ele>113.57</ele>
        <time>2010-12-31T08:13:29Z</time>
      </trkpt>
      <trkpt lat="48.9898" lon="1.05568">
        <ele>114.05</ele>
        <time>2010-12-31T08:13:34Z</time>
      </trkpt>
      <trkpt lat="48.98963" lon="1.05572">
        <ele>117.9</ele>
        <time>2010-12-31T08:13:43Z</time>
      </trkpt>
      <trkpt lat="48.98938" lon="1.05585">
        <ele>119.34</ele>
        <time>2010-12-31T08:13:57Z</time>
      </trkpt>
      <trkpt lat="48.98936" lon="1.05587">
        <ele>120.3</ele>
        <time>2010-12-31T08:13:59Z</time>
      </trkpt>
      <trkpt lat="48.98917" lon="1.05604">
        <ele>123.19</ele>
        <time>2010-12-31T08:14:14Z</time>
      </trkpt>
      <trkpt lat="48.98907" lon="1.05614">
        <ele>124.15</ele>
        <time>2010-12-31T08:14:21Z</time>
      </trkpt>
      <trkpt lat="48.98883" lon="1.05637">
        <ele>124.63</ele>
        <time>2010-12-31T08:14:35Z</time>
      </trkpt>
      <trkpt lat="48.98873" lon="1.0565">
        <ele>126.07</ele>
        <time>2010-12-31T08:14:42Z</time>
      </trkpt>
      <trkpt lat="48.98863" lon="1.05667">
        <ele>127.03</ele>
        <time>2010-12-31T08:14:51Z</time>
      </trkpt>
      <trkpt lat="48.9886" lon="1.05671">
        <ele>127.99</ele>
        <time>2010-12-31T08:14:53Z</time>
      </trkpt>
      <trkpt lat="48.98857" lon="1.05682">
        <ele>127.51</ele>
        <time>2010-12-31T08:14:57Z</time>
      </trkpt>
      <trkpt lat="48.98853" lon="1.05691">
        <ele>127.51</ele>
        <time>2010-12-31T08:15:01Z</time>
      </trkpt>
      <trkpt lat="48.98843" lon="1.05708">
        <ele>127.03</ele>
        <time>2010-12-31T08:15:08Z</time>
      </trkpt>
      <trkpt lat="48.98835" lon="1.05721">
        <ele>127.99</ele>
        <time>2010-12-31T08:15:13Z</time>
      </trkpt>
      <trkpt lat="48.98822" lon="1.05744">
        <ele>130.4</ele>
        <time>2010-12-31T08:15:23Z</time>
      </trkpt>
      <trkpt lat="48.98817" lon="1.05757">
        <ele>129.92</ele>
        <time>2010-12-31T08:15:27Z</time>
      </trkpt>
      <trkpt lat="48.98799" lon="1.05794">
        <ele>131.36</ele>
        <time>2010-12-31T08:15:41Z</time>
      </trkpt>
      <trkpt lat="48.98784" lon="1.05828">
        <ele>133.28</ele>
        <time>2010-12-31T08:15:54Z</time>
      </trkpt>
      <trkpt lat="48.98771" lon="1.05861">
        <ele>131.84</ele>
        <time>2010-12-31T08:16:06Z</time>
      </trkpt>
      <trkpt lat="48.98768" lon="1.05868">
        <ele>133.28</ele>
        <time>2010-12-31T08:16:08Z</time>
      </trkpt>
      <trkpt lat="48.98746" lon="1.05913">
        <ele>134.24</ele>
        <time>2010-12-31T08:16:24Z</time>
      </trkpt>
      <trkpt lat="48.98728" lon="1.05953">
        <ele>134.24</ele>
        <time>2010-12-31T08:16:39Z</time>
      </trkpt>
      <trkpt lat="48.98713" lon="1.05986">
        <ele>135.2</ele>
        <time>2010-12-31T08:16:51Z</time>
      </trkpt>
      <trkpt lat="48.98706" lon="1.05998">
        <ele>132.32</ele>
        <time>2010-12-31T08:16:56Z</time>
      </trkpt>
      <trkpt lat="48.98703" lon="1.06004">
        <ele>135.68</ele>
        <time>2010-12-31T08:16:58Z</time>
      </trkpt>
      <trkpt lat="48.98701" lon="1.06006">
        <ele>135.68</ele>
        <time>2010-12-31T08:16:59Z</time>
      </trkpt>
      <trkpt lat="48.98694" lon="1.06021">
        <ele>135.68</ele>
        <time>2010-12-31T08:17:05Z</time>
      </trkpt>
      <trkpt lat="48.98682" lon="1.06051">
        <ele>134.24</ele>
        <time>2010-12-31T08:17:16Z</time>
      </trkpt>
      <trkpt lat="48.98669" lon="1.06078">
        <ele>136.16</ele>
        <time>2010-12-31T08:17:27Z</time>
      </trkpt>
      <trkpt lat="48.98653" lon="1.06107">
        <ele>135.68</ele>
        <time>2010-12-31T08:17:38Z</time>
      </trkpt>
      <trkpt lat="48.98639" lon="1.06141">
        <ele>137.13</ele>
        <time>2010-12-31T08:17:50Z</time>
      </trkpt>
      <trkpt lat="48.98631" lon="1.06163">
        <ele>134.72</ele>
        <time>2010-12-31T08:17:57Z</time>
      </trkpt>
      <trkpt lat="48.98627" lon="1.06171">
        <ele>136.64</ele>
        <time>2010-12-31T08:18:00Z</time>
      </trkpt>
      <trkpt lat="48.98609" lon="1.06212">
        <ele>135.68</ele>
        <time>2010-12-31T08:18:14Z</time>
      </trkpt>
      <trkpt lat="48.98595" lon="1.06236">
        <ele>135.2</ele>
        <time>2010-12-31T08:18:23Z</time>
      </trkpt>
      <trkpt lat="48.98592" lon="1.06241">
        <ele>136.64</ele>
        <time>2010-12-31T08:18:25Z</time>
      </trkpt>
      <trkpt lat="48.98583" lon="1.06257">
        <ele>135.2</ele>
        <time>2010-12-31T08:18:30Z</time>
      </trkpt>
      <trkpt lat="48.98571" lon="1.06286">
        <ele>135.2</ele>
        <time>2010-12-31T08:18:39Z</time>
      </trkpt>
      <trkpt lat="48.98563" lon="1.06301">
        <ele>135.68</ele>
        <time>2010-12-31T08:18:44Z</time>
      </trkpt>
      <trkpt lat="48.98557" lon="1.06314">
        <ele>136.16</ele>
        <time>2010-12-31T08:18:48Z</time>
      </trkpt>
      <trkpt lat="48.98543" lon="1.06346">
        <ele>134.72</ele>
        <time>2010-12-31T08:18:58Z</time>
      </trkpt>
      <trkpt lat="48.98528" lon="1.06378">
        <ele>134.72</ele>
        <time>2010-12-31T08:19:08Z</time>
      </trkpt>
      <trkpt lat="48.9851" lon="1.06418">
        <ele>134.24</ele>
        <time>2010-12-31T08:19:23Z</time>
      </trkpt>
      <trkpt lat="48.98505" lon="1.06429">
        <ele>134.72</ele>
        <time>2010-12-31T08:19:26Z</time>
      </trkpt>
      <trkpt lat="48.9848" lon="1.06483">
        <ele>136.16</ele>
        <time>2010-12-31T08:19:42Z</time>
      </trkpt>
      <trkpt lat="48.98477" lon="1.06489">
        <ele>136.16</ele>
        <time>2010-12-31T08:19:44Z</time>
      </trkpt>
      <trkpt lat="48.98462" lon="1.06523">
        <ele>136.64</ele>
        <time>2010-12-31T08:19:56Z</time>
      </trkpt>
      <trkpt lat="48.98458" lon="1.06533">
        <ele>136.64</ele>
        <time>2010-12-31T08:20:00Z</time>
      </trkpt>
      <trkpt lat="48.98441" lon="1.06577">
        <ele>136.64</ele>
        <time>2010-12-31T08:20:15Z</time>
      </trkpt>
      <trkpt lat="48.98434" lon="1.06586">
        <ele>139.05</ele>
        <time>2010-12-31T08:20:19Z</time>
      </trkpt>
      <trkpt lat="48.98424" lon="1.06602">
        <ele>137.13</ele>
        <time>2010-12-31T08:20:25Z</time>
      </trkpt>
      <trkpt lat="48.98422" lon="1.06607">
        <ele>139.05</ele>
        <time>2010-12-31T08:20:27Z</time>
      </trkpt>
      <trkpt lat="48.98405" lon="1.06642">
        <ele>139.05</ele>
        <time>2010-12-31T08:20:39Z</time>
      </trkpt>
      <trkpt lat="48.98395" lon="1.0667">
        <ele>138.57</ele>
        <time>2010-12-31T08:20:48Z</time>
      </trkpt>
      <trkpt lat="48.98386" lon="1.0669">
        <ele>138.09</ele>
        <time>2010-12-31T08:20:55Z</time>
      </trkpt>
      <trkpt lat="48.9838" lon="1.06701">
        <ele>141.45</ele>
        <time>2010-12-31T08:20:59Z</time>
      </trkpt>
      <trkpt lat="48.98365" lon="1.06731">
        <ele>140.49</ele>
        <time>2010-12-31T08:21:10Z</time>
      </trkpt>
      <trkpt lat="48.98345" lon="1.06773">
        <ele>140.01</ele>
        <time>2010-12-31T08:21:24Z</time>
      </trkpt>
      <trkpt lat="48.98329" lon="1.0681">
        <ele>139.53</ele>
        <time>2010-12-31T08:21:36Z</time>
      </trkpt>
      <trkpt lat="48.98314" lon="1.06838">
        <ele>139.53</ele>
        <time>2010-12-31T08:21:46Z</time>
      </trkpt>
      <trkpt lat="48.98312" lon="1.06841">
        <ele>142.89</ele>
        <time>2010-12-31T08:21:47Z</time>
      </trkpt>
      <trkpt lat="48.98311" lon="1.06844">
        <ele>138.57</ele>
        <time>2010-12-31T08:21:48Z</time>
      </trkpt>
      <trkpt lat="48.98307" lon="1.06849">
        <ele>142.89</ele>
        <time>2010-12-31T08:21:50Z</time>
      </trkpt>
      <trkpt lat="48.98306" lon="1.06852">
        <ele>140.49</ele>
        <time>2010-12-31T08:21:51Z</time>
      </trkpt>
      <trkpt lat="48.983" lon="1.06863">
        <ele>141.45</ele>
        <time>2010-12-31T08:21:55Z</time>
      </trkpt>
      <trkpt lat="48.98291" lon="1.06889">
        <ele>141.93</ele>
        <time>2010-12-31T08:22:04Z</time>
      </trkpt>
      <trkpt lat="48.98282" lon="1.06909">
        <ele>141.93</ele>
        <time>2010-12-31T08:22:12Z</time>
      </trkpt>
      <trkpt lat="48.98265" lon="1.06945">
        <ele>139.05</ele>
        <time>2010-12-31T08:22:24Z</time>
      </trkpt>
      <trkpt lat="48.98261" lon="1.06953">
        <ele>140.97</ele>
        <time>2010-12-31T08:22:27Z</time>
      </trkpt>
      <trkpt lat="48.98249" lon="1.06982">
        <ele>140.01</ele>
        <time>2010-12-31T08:22:38Z</time>
      </trkpt>
      <trkpt lat="48.98247" lon="1.06988">
        <ele>141.93</ele>
        <time>2010-12-31T08:22:40Z</time>
      </trkpt>
      <trkpt lat="48.98234" lon="1.07006">
        <ele>139.05</ele>
        <time>2010-12-31T08:22:47Z</time>
      </trkpt>
      <trkpt lat="48.9823" lon="1.07012">
        <ele>141.93</ele>
        <time>2010-12-31T08:22:49Z</time>
      </trkpt>
      <trkpt lat="48.98228" lon="1.07018">
        <ele>142.41</ele>
        <time>2010-12-31T08:22:51Z</time>
      </trkpt>
      <trkpt lat="48.98222" lon="1.07033">
        <ele>142.89</ele>
        <time>2010-12-31T08:22:56Z</time>
      </trkpt>
      <trkpt lat="48.98214" lon="1.0705">
        <ele>140.01</ele>
        <time>2010-12-31T08:23:02Z</time>
      </trkpt>
      <trkpt lat="48.98209" lon="1.0706">
        <ele>141.93</ele>
        <time>2010-12-31T08:23:05Z</time>
      </trkpt>
      <trkpt lat="48.98194" lon="1.07093">
        <ele>141.93</ele>
        <time>2010-12-31T08:23:16Z</time>
      </trkpt>
      <trkpt lat="48.98192" lon="1.07095">
        <ele>141.93</ele>
        <time>2010-12-31T08:23:17Z</time>
      </trkpt>
      <trkpt lat="48.98182" lon="1.0713">
        <ele>141.93</ele>
        <time>2010-12-31T08:23:27Z</time>
      </trkpt>
      <trkpt lat="48.9817" lon="1.0715">
        <ele>142.41</ele>
        <time>2010-12-31T08:23:34Z</time>
      </trkpt>
      <trkpt lat="48.98165" lon="1.07157">
        <ele>143.85</ele>
        <time>2010-12-31T08:23:37Z</time>
      </trkpt>
      <trkpt lat="48.98161" lon="1.07164">
        <ele>140.49</ele>
        <time>2010-12-31T08:23:39Z</time>
      </trkpt>
      <trkpt lat="48.98159" lon="1.07167">
        <ele>140.97</ele>
        <time>2010-12-31T08:23:40Z</time>
      </trkpt>
      <trkpt lat="48.98142" lon="1.07201">
        <ele>141.93</ele>
        <time>2010-12-31T08:23:50Z</time>
      </trkpt>
      <trkpt lat="48.98126" lon="1.07243">
        <ele>141.93</ele>
        <time>2010-12-31T08:24:04Z</time>
      </trkpt>
      <trkpt lat="48.9811" lon="1.07273">
        <ele>140.97</ele>
        <time>2010-12-31T08:24:15Z</time>
      </trkpt>
      <trkpt lat="48.98108" lon="1.07276">
        <ele>142.89</ele>
        <time>2010-12-31T08:24:16Z</time>
      </trkpt>
      <trkpt lat="48.98093" lon="1.07316">
        <ele>141.93</ele>
        <time>2010-12-31T08:24:29Z</time>
      </trkpt>
      <trkpt lat="48.98091" lon="1.07321">
        <ele>142.89</ele>
        <time>2010-12-31T08:24:31Z</time>
      </trkpt>
      <trkpt lat="48.98084" lon="1.07338">
        <ele>142.89</ele>
        <time>2010-12-31T08:24:38Z</time>
      </trkpt>
      <trkpt lat="48.98064" lon="1.07373">
        <ele>142.89</ele>
        <time>2010-12-31T08:24:50Z</time>
      </trkpt>
      <trkpt lat="48.98053" lon="1.07397">
        <ele>140.01</ele>
        <time>2010-12-31T08:24:59Z</time>
      </trkpt>
      <trkpt lat="48.98052" lon="1.07401">
        <ele>144.34</ele>
        <time>2010-12-31T08:25:00Z</time>
      </trkpt>
      <trkpt lat="48.9805" lon="1.07404">
        <ele>143.37</ele>
        <time>2010-12-31T08:25:01Z</time>
      </trkpt>
      <trkpt lat="48.98048" lon="1.07411">
        <ele>141.45</ele>
        <time>2010-12-31T08:25:03Z</time>
      </trkpt>
      <trkpt lat="48.98044" lon="1.07422">
        <ele>145.3</ele>
        <time>2010-12-31T08:25:06Z</time>
      </trkpt>
      <trkpt lat="48.98039" lon="1.07434">
        <ele>142.41</ele>
        <time>2010-12-31T08:25:10Z</time>
      </trkpt>
      <trkpt lat="48.98032" lon="1.0745">
        <ele>143.85</ele>
        <time>2010-12-31T08:25:15Z</time>
      </trkpt>
      <trkpt lat="48.98024" lon="1.07469">
        <ele>142.41</ele>
        <time>2010-12-31T08:25:21Z</time>
      </trkpt>
      <trkpt lat="48.98022" lon="1.07472">
        <ele>145.3</ele>
        <time>2010-12-31T08:25:22Z</time>
      </trkpt>
      <trkpt lat="48.98018" lon="1.07481">
        <ele>142.41</ele>
        <time>2010-12-31T08:25:25Z</time>
      </trkpt>
      <trkpt lat="48.98016" lon="1.07483">
        <ele>146.26</ele>
        <time>2010-12-31T08:25:26Z</time>
      </trkpt>
      <trkpt lat="48.98008" lon="1.075">
        <ele>144.34</ele>
        <time>2010-12-31T08:25:32Z</time>
      </trkpt>
      <trkpt lat="48.97999" lon="1.07518">
        <ele>144.34</ele>
        <time>2010-12-31T08:25:38Z</time>
      </trkpt>
      <trkpt lat="48.97995" lon="1.07527">
        <ele>143.85</ele>
        <time>2010-12-31T08:25:41Z</time>
      </trkpt>
      <trkpt lat="48.9799" lon="1.0754">
        <ele>145.78</ele>
        <time>2010-12-31T08:25:45Z</time>
      </trkpt>
      <trkpt lat="48.97987" lon="1.07547">
        <ele>144.34</ele>
        <time>2010-12-31T08:25:47Z</time>
      </trkpt>
      <trkpt lat="48.97967" lon="1.07584">
        <ele>145.78</ele>
        <time>2010-12-31T08:25:59Z</time>
      </trkpt>
      <trkpt lat="48.97952" lon="1.07616">
        <ele>145.78</ele>
        <time>2010-12-31T08:26:10Z</time>
      </trkpt>
      <trkpt lat="48.97951" lon="1.07623">
        <ele>148.66</ele>
        <time>2010-12-31T08:26:12Z</time>
      </trkpt>
      <trkpt lat="48.97948" lon="1.07633">
        <ele>145.3</ele>
        <time>2010-12-31T08:26:15Z</time>
      </trkpt>
      <trkpt lat="48.97932" lon="1.07663">
        <ele>144.82</ele>
        <time>2010-12-31T08:26:26Z</time>
      </trkpt>
      <trkpt lat="48.97925" lon="1.07679">
        <ele>148.18</ele>
        <time>2010-12-31T08:26:31Z</time>
      </trkpt>
      <trkpt lat="48.97921" lon="1.07686">
        <ele>147.7</ele>
        <time>2010-12-31T08:26:33Z</time>
      </trkpt>
      <trkpt lat="48.97912" lon="1.07701">
        <ele>148.66</ele>
        <time>2010-12-31T08:26:38Z</time>
      </trkpt>
      <trkpt lat="48.97911" lon="1.07704">
        <ele>146.26</ele>
        <time>2010-12-31T08:26:39Z</time>
      </trkpt>
      <trkpt lat="48.97894" lon="1.07744">
        <ele>146.74</ele>
        <time>2010-12-31T08:26:52Z</time>
      </trkpt>
      <trkpt lat="48.97877" lon="1.07775">
        <ele>147.7</ele>
        <time>2010-12-31T08:27:01Z</time>
      </trkpt>
      <trkpt lat="48.97868" lon="1.07795">
        <ele>147.22</ele>
        <time>2010-12-31T08:27:08Z</time>
      </trkpt>
      <trkpt lat="48.97859" lon="1.07813">
        <ele>148.66</ele>
        <time>2010-12-31T08:27:15Z</time>
      </trkpt>
      <trkpt lat="48.97856" lon="1.07819">
        <ele>149.62</ele>
        <time>2010-12-31T08:27:17Z</time>
      </trkpt>
      <trkpt lat="48.97835" lon="1.07864">
        <ele>149.14</ele>
        <time>2010-12-31T08:27:30Z</time>
      </trkpt>
      <trkpt lat="48.97825" lon="1.07886">
        <ele>146.74</ele>
        <time>2010-12-31T08:27:37Z</time>
      </trkpt>
      <trkpt lat="48.97811" lon="1.07919">
        <ele>150.58</ele>
        <time>2010-12-31T08:27:47Z</time>
      </trkpt>
      <trkpt lat="48.9781" lon="1.07922">
        <ele>150.58</ele>
        <time>2010-12-31T08:27:48Z</time>
      </trkpt>
      <trkpt lat="48.97808" lon="1.07925">
        <ele>147.22</ele>
        <time>2010-12-31T08:27:49Z</time>
      </trkpt>
      <trkpt lat="48.97807" lon="1.07928">
        <ele>148.66</ele>
        <time>2010-12-31T08:27:50Z</time>
      </trkpt>
      <trkpt lat="48.97803" lon="1.07941">
        <ele>148.18</ele>
        <time>2010-12-31T08:27:54Z</time>
      </trkpt>
      <trkpt lat="48.97788" lon="1.07969">
        <ele>147.7</ele>
        <time>2010-12-31T08:28:04Z</time>
      </trkpt>
      <trkpt lat="48.9778" lon="1.07986">
        <ele>145.78</ele>
        <time>2010-12-31T08:28:09Z</time>
      </trkpt>
      <trkpt lat="48.97771" lon="1.08005">
        <ele>149.62</ele>
        <time>2010-12-31T08:28:15Z</time>
      </trkpt>
      <trkpt lat="48.97756" lon="1.08041">
        <ele>147.7</ele>
        <time>2010-12-31T08:28:26Z</time>
      </trkpt>
      <trkpt lat="48.9775" lon="1.08057">
        <ele>148.18</ele>
        <time>2010-12-31T08:28:31Z</time>
      </trkpt>
      <trkpt lat="48.97737" lon="1.08084">
        <ele>147.22</ele>
        <time>2010-12-31T08:28:40Z</time>
      </trkpt>
      <trkpt lat="48.97736" lon="1.08087">
        <ele>151.06</ele>
        <time>2010-12-31T08:28:41Z</time>
      </trkpt>
      <trkpt lat="48.97734" lon="1.0809">
        <ele>149.14</ele>
        <time>2010-12-31T08:28:42Z</time>
      </trkpt>
      <trkpt lat="48.97723" lon="1.08115">
        <ele>148.66</ele>
        <time>2010-12-31T08:28:50Z</time>
      </trkpt>
      <trkpt lat="48.97714" lon="1.08132">
        <ele>148.66</ele>
        <time>2010-12-31T08:28:55Z</time>
      </trkpt>
      <trkpt lat="48.977" lon="1.08162">
        <ele>146.74</ele>
        <time>2010-12-31T08:29:05Z</time>
      </trkpt>
      <trkpt lat="48.97696" lon="1.08171">
        <ele>145.78</ele>
        <time>2010-12-31T08:29:08Z</time>
      </trkpt>
      <trkpt lat="48.97695" lon="1.08174">
        <ele>145.78</ele>
        <time>2010-12-31T08:29:09Z</time>
      </trkpt>
      <trkpt lat="48.97684" lon="1.082">
        <ele>146.26</ele>
        <time>2010-12-31T08:29:17Z</time>
      </trkpt>
      <trkpt lat="48.97663" lon="1.08242">
        <ele>146.26</ele>
        <time>2010-12-31T08:29:30Z</time>
      </trkpt>
      <trkpt lat="48.9765" lon="1.0827">
        <ele>145.78</ele>
        <time>2010-12-31T08:29:39Z</time>
      </trkpt>
      <trkpt lat="48.97633" lon="1.08306">
        <ele>146.26</ele>
        <time>2010-12-31T08:29:51Z</time>
      </trkpt>
      <trkpt lat="48.97624" lon="1.08322">
        <ele>146.26</ele>
        <time>2010-12-31T08:29:56Z</time>
      </trkpt>
      <trkpt lat="48.97603" lon="1.08367">
        <ele>143.37</ele>
        <time>2010-12-31T08:30:08Z</time>
      </trkpt>
      <trkpt lat="48.97588" lon="1.08392">
        <ele>147.22</ele>
        <time>2010-12-31T08:30:16Z</time>
      </trkpt>
      <trkpt lat="48.97583" lon="1.08401">
        <ele>143.85</ele>
        <time>2010-12-31T08:30:19Z</time>
      </trkpt>
      <trkpt lat="48.97569" lon="1.08439">
        <ele>147.22</ele>
        <time>2010-12-31T08:30:30Z</time>
      </trkpt>
      <trkpt lat="48.97567" lon="1.08443">
        <ele>142.89</ele>
        <time>2010-12-31T08:30:31Z</time>
      </trkpt>
      <trkpt lat="48.97562" lon="1.08452">
        <ele>144.34</ele>
        <time>2010-12-31T08:30:34Z</time>
      </trkpt>
      <trkpt lat="48.97548" lon="1.08483">
        <ele>142.89</ele>
        <time>2010-12-31T08:30:43Z</time>
      </trkpt>
      <trkpt lat="48.97537" lon="1.08506">
        <ele>140.49</ele>
        <time>2010-12-31T08:30:50Z</time>
      </trkpt>
      <trkpt lat="48.97528" lon="1.08524">
        <ele>143.85</ele>
        <time>2010-12-31T08:30:55Z</time>
      </trkpt>
      <trkpt lat="48.97522" lon="1.08536">
        <ele>141.45</ele>
        <time>2010-12-31T08:30:58Z</time>
      </trkpt>
      <trkpt lat="48.97504" lon="1.08567">
        <ele>139.05</ele>
        <time>2010-12-31T08:31:08Z</time>
      </trkpt>
      <trkpt lat="48.97501" lon="1.08573">
        <ele>142.41</ele>
        <time>2010-12-31T08:31:10Z</time>
      </trkpt>
      <trkpt lat="48.97491" lon="1.08594">
        <ele>141.93</ele>
        <time>2010-12-31T08:31:16Z</time>
      </trkpt>
      <trkpt lat="48.97477" lon="1.08627">
        <ele>140.01</ele>
        <time>2010-12-31T08:31:26Z</time>
      </trkpt>
      <trkpt lat="48.97474" lon="1.08634">
        <ele>141.93</ele>
        <time>2010-12-31T08:31:28Z</time>
      </trkpt>
      <trkpt lat="48.9747" lon="1.08644">
        <ele>139.05</ele>
        <time>2010-12-31T08:31:31Z</time>
      </trkpt>
      <trkpt lat="48.97468" lon="1.08659">
        <ele>140.01</ele>
        <time>2010-12-31T08:31:35Z</time>
      </trkpt>
      <trkpt lat="48.97484" lon="1.08693">
        <ele>139.53</ele>
        <time>2010-12-31T08:31:46Z</time>
      </trkpt>
      <trkpt lat="48.97502" lon="1.08709">
        <ele>140.01</ele>
        <time>2010-12-31T08:31:55Z</time>
      </trkpt>
      <trkpt lat="48.97524" lon="1.08729">
        <ele>143.37</ele>
        <time>2010-12-31T08:32:06Z</time>
      </trkpt>
      <trkpt lat="48.97526" lon="1.0873">
        <ele>140.49</ele>
        <time>2010-12-31T08:32:07Z</time>
      </trkpt>
      <trkpt lat="48.97552" lon="1.08753">
        <ele>141.45</ele>
        <time>2010-12-31T08:32:21Z</time>
      </trkpt>
      <trkpt lat="48.97574" lon="1.08772">
        <ele>140.49</ele>
        <time>2010-12-31T08:32:32Z</time>
      </trkpt>
      <trkpt lat="48.97591" lon="1.08783">
        <ele>144.82</ele>
        <time>2010-12-31T08:32:40Z</time>
      </trkpt>
      <trkpt lat="48.97593" lon="1.08784">
        <ele>141.93</ele>
        <time>2010-12-31T08:32:41Z</time>
      </trkpt>
      <trkpt lat="48.97608" lon="1.08796">
        <ele>144.82</ele>
        <time>2010-12-31T08:32:48Z</time>
      </trkpt>
      <trkpt lat="48.9761" lon="1.08798">
        <ele>141.45</ele>
        <time>2010-12-31T08:32:49Z</time>
      </trkpt>
      <trkpt lat="48.97639" lon="1.08821">
        <ele>143.85</ele>
        <time>2010-12-31T08:33:02Z</time>
      </trkpt>
      <trkpt lat="48.97665" lon="1.08841">
        <ele>143.37</ele>
        <time>2010-12-31T08:33:14Z</time>
      </trkpt>
      <trkpt lat="48.97691" lon="1.08865">
        <ele>143.37</ele>
        <time>2010-12-31T08:33:27Z</time>
      </trkpt>
      <trkpt lat="48.9771" lon="1.0888">
        <ele>145.3</ele>
        <time>2010-12-31T08:33:36Z</time>
      </trkpt>
      <trkpt lat="48.97714" lon="1.08883">
        <ele>143.85</ele>
        <time>2010-12-31T08:33:38Z</time>
      </trkpt>
      <trkpt lat="48.97738" lon="1.08898">
        <ele>143.37</ele>
        <time>2010-12-31T08:33:49Z</time>
      </trkpt>
      <trkpt lat="48.97764" lon="1.08917">
        <ele>143.37</ele>
        <time>2010-12-31T08:34:02Z</time>
      </trkpt>
      <trkpt lat="48.97769" lon="1.0892">
        <ele>145.78</ele>
        <time>2010-12-31T08:34:04Z</time>
      </trkpt>
      <trkpt lat="48.97782" lon="1.08932">
        <ele>144.34</ele>
        <time>2010-12-31T08:34:11Z</time>
      </trkpt>
      <trkpt lat="48.97808" lon="1.08954">
        <ele>143.37</ele>
        <time>2010-12-31T08:34:24Z</time>
      </trkpt>
      <trkpt lat="48.97819" lon="1.08962">
        <ele>146.74</ele>
        <time>2010-12-31T08:34:30Z</time>
      </trkpt>
      <trkpt lat="48.9782" lon="1.08963">
        <ele>140.97</ele>
        <time>2010-12-31T08:34:31Z</time>
      </trkpt>
      <trkpt lat="48.97822" lon="1.08964">
        <ele>145.3</ele>
        <time>2010-12-31T08:34:32Z</time>
      </trkpt>
      <trkpt lat="48.97831" lon="1.0897">
        <ele>144.82</ele>
        <time>2010-12-31T08:34:36Z</time>
      </trkpt>
      <trkpt lat="48.97857" lon="1.08992">
        <ele>143.85</ele>
        <time>2010-12-31T08:34:49Z</time>
      </trkpt>
      <trkpt lat="48.97861" lon="1.08995">
        <ele>144.34</ele>
        <time>2010-12-31T08:34:51Z</time>
      </trkpt>
      <trkpt lat="48.97869" lon="1.09001">
        <ele>145.78</ele>
        <time>2010-12-31T08:34:55Z</time>
      </trkpt>
      <trkpt lat="48.97873" lon="1.09004">
        <ele>142.41</ele>
        <time>2010-12-31T08:34:57Z</time>
      </trkpt>
      <trkpt lat="48.97891" lon="1.09018">
        <ele>146.26</ele>
        <time>2010-12-31T08:35:05Z</time>
      </trkpt>
      <trkpt lat="48.97898" lon="1.09024">
        <ele>145.78</ele>
        <time>2010-12-31T08:35:09Z</time>
      </trkpt>
      <trkpt lat="48.97923" lon="1.09044">
        <ele>145.3</ele>
        <time>2010-12-31T08:35:22Z</time>
      </trkpt>
      <trkpt lat="48.97926" lon="1.09046">
        <ele>145.3</ele>
        <time>2010-12-31T08:35:23Z</time>
      </trkpt>
      <trkpt lat="48.97953" lon="1.09068">
        <ele>146.74</ele>
        <time>2010-12-31T08:35:36Z</time>
      </trkpt>
      <trkpt lat="48.97979" lon="1.09089">
        <ele>148.18</ele>
        <time>2010-12-31T08:35:48Z</time>
      </trkpt>
      <trkpt lat="48.97984" lon="1.09093">
        <ele>144.82</ele>
        <time>2010-12-31T08:35:50Z</time>
      </trkpt>
      <trkpt lat="48.98014" lon="1.09113">
        <ele>143.37</ele>
        <time>2010-12-31T08:36:04Z</time>
      </trkpt>
      <trkpt lat="48.98023" lon="1.0912">
        <ele>146.74</ele>
        <time>2010-12-31T08:36:08Z</time>
      </trkpt>
      <trkpt lat="48.98047" lon="1.09138">
        <ele>142.41</ele>
        <time>2010-12-31T08:36:19Z</time>
      </trkpt>
      <trkpt lat="48.98064" lon="1.09152">
        <ele>144.82</ele>
        <time>2010-12-31T08:36:26Z</time>
      </trkpt>
      <trkpt lat="48.98068" lon="1.09157">
        <ele>143.85</ele>
        <time>2010-12-31T08:36:28Z</time>
      </trkpt>
      <trkpt lat="48.98091" lon="1.09174">
        <ele>144.82</ele>
        <time>2010-12-31T08:36:39Z</time>
      </trkpt>
      <trkpt lat="48.98115" lon="1.09194">
        <ele>144.34</ele>
        <time>2010-12-31T08:36:50Z</time>
      </trkpt>
      <trkpt lat="48.98137" lon="1.09212">
        <ele>141.45</ele>
        <time>2010-12-31T08:37:00Z</time>
      </trkpt>
      <trkpt lat="48.9814" lon="1.09215">
        <ele>142.41</ele>
        <time>2010-12-31T08:37:01Z</time>
      </trkpt>
      <trkpt lat="48.9815" lon="1.09224">
        <ele>146.26</ele>
        <time>2010-12-31T08:37:05Z</time>
      </trkpt>
      <trkpt lat="48.98152" lon="1.09226">
        <ele>140.97</ele>
        <time>2010-12-31T08:37:06Z</time>
      </trkpt>
      <trkpt lat="48.98162" lon="1.09234">
        <ele>145.3</ele>
        <time>2010-12-31T08:37:10Z</time>
      </trkpt>
      <trkpt lat="48.98165" lon="1.09235">
        <ele>145.78</ele>
        <time>2010-12-31T08:37:11Z</time>
      </trkpt>
      <trkpt lat="48.98175" lon="1.09241">
        <ele>141.45</ele>
        <time>2010-12-31T08:37:15Z</time>
      </trkpt>
      <trkpt lat="48.98201" lon="1.09263">
        <ele>142.89</ele>
        <time>2010-12-31T08:37:26Z</time>
      </trkpt>
      <trkpt lat="48.98225" lon="1.09278">
        <ele>142.41</ele>
        <time>2010-12-31T08:37:36Z</time>
      </trkpt>
      <trkpt lat="48.98256" lon="1.09301">
        <ele>140.49</ele>
        <time>2010-12-31T08:37:49Z</time>
      </trkpt>
      <trkpt lat="48.98261" lon="1.09304">
        <ele>141.45</ele>
        <time>2010-12-31T08:37:51Z</time>
      </trkpt>
      <trkpt lat="48.98304" lon="1.09339">
        <ele>138.57</ele>
        <time>2010-12-31T08:38:08Z</time>
      </trkpt>
      <trkpt lat="48.98341" lon="1.09366">
        <ele>137.61</ele>
        <time>2010-12-31T08:38:23Z</time>
      </trkpt>
      <trkpt lat="48.98373" lon="1.09391">
        <ele>136.16</ele>
        <time>2010-12-31T08:38:37Z</time>
      </trkpt>
      <trkpt lat="48.984" lon="1.09415">
        <ele>137.61</ele>
        <time>2010-12-31T08:38:49Z</time>
      </trkpt>
      <trkpt lat="48.98404" lon="1.09418">
        <ele>134.24</ele>
        <time>2010-12-31T08:38:51Z</time>
      </trkpt>
      <trkpt lat="48.98409" lon="1.09421">
        <ele>137.61</ele>
        <time>2010-12-31T08:38:53Z</time>
      </trkpt>
      <trkpt lat="48.98411" lon="1.09422">
        <ele>135.68</ele>
        <time>2010-12-31T08:38:54Z</time>
      </trkpt>
      <trkpt lat="48.98436" lon="1.09441">
        <ele>131.84</ele>
        <time>2010-12-31T08:39:05Z</time>
      </trkpt>
      <trkpt lat="48.98439" lon="1.09443">
        <ele>133.28</ele>
        <time>2010-12-31T08:39:06Z</time>
      </trkpt>
      <trkpt lat="48.98444" lon="1.09446">
        <ele>134.24</ele>
        <time>2010-12-31T08:39:08Z</time>
      </trkpt>
      <trkpt lat="48.98463" lon="1.09459">
        <ele>133.28</ele>
        <time>2010-12-31T08:39:16Z</time>
      </trkpt>
      <trkpt lat="48.98494" lon="1.09484">
        <ele>134.24</ele>
        <time>2010-12-31T08:39:31Z</time>
      </trkpt>
      <trkpt lat="48.98499" lon="1.09488">
        <ele>130.88</ele>
        <time>2010-12-31T08:39:33Z</time>
      </trkpt>
      <trkpt lat="48.98505" lon="1.09493">
        <ele>134.72</ele>
        <time>2010-12-31T08:39:36Z</time>
      </trkpt>
      <trkpt lat="48.9851" lon="1.09496">
        <ele>135.68</ele>
        <time>2010-12-31T08:39:38Z</time>
      </trkpt>
      <trkpt lat="48.98512" lon="1.09498">
        <ele>132.32</ele>
        <time>2010-12-31T08:39:39Z</time>
      </trkpt>
      <trkpt lat="48.98523" lon="1.09506">
        <ele>132.32</ele>
        <time>2010-12-31T08:39:44Z</time>
      </trkpt>
      <trkpt lat="48.98554" lon="1.09527">
        <ele>134.24</ele>
        <time>2010-12-31T08:39:59Z</time>
      </trkpt>
      <trkpt lat="48.9856" lon="1.09532">
        <ele>130.88</ele>
        <time>2010-12-31T08:40:02Z</time>
      </trkpt>
      <trkpt lat="48.98578" lon="1.09548">
        <ele>131.84</ele>
        <time>2010-12-31T08:40:11Z</time>
      </trkpt>
      <trkpt lat="48.98611" lon="1.09576">
        <ele>134.24</ele>
        <time>2010-12-31T08:40:25Z</time>
      </trkpt>
      <trkpt lat="48.98632" lon="1.09597">
        <ele>130.88</ele>
        <time>2010-12-31T08:40:35Z</time>
      </trkpt>
      <trkpt lat="48.98638" lon="1.09605">
        <ele>134.72</ele>
        <time>2010-12-31T08:40:38Z</time>
      </trkpt>
      <trkpt lat="48.9866" lon="1.09631">
        <ele>130.4</ele>
        <time>2010-12-31T08:40:48Z</time>
      </trkpt>
      <trkpt lat="48.98685" lon="1.0966">
        <ele>133.28</ele>
        <time>2010-12-31T08:41:01Z</time>
      </trkpt>
      <trkpt lat="48.98695" lon="1.09672">
        <ele>129.43</ele>
        <time>2010-12-31T08:41:06Z</time>
      </trkpt>
      <trkpt lat="48.98697" lon="1.09674">
        <ele>130.88</ele>
        <time>2010-12-31T08:41:07Z</time>
      </trkpt>
      <trkpt lat="48.98718" lon="1.09704">
        <ele>130.4</ele>
        <time>2010-12-31T08:41:18Z</time>
      </trkpt>
      <trkpt lat="48.98748" lon="1.09741">
        <ele>128.47</ele>
        <time>2010-12-31T08:41:33Z</time>
      </trkpt>
      <trkpt lat="48.98753" lon="1.09744">
        <ele>128.47</ele>
        <time>2010-12-31T08:41:35Z</time>
      </trkpt>
      <trkpt lat="48.98761" lon="1.09741">
        <ele>127.03</ele>
        <time>2010-12-31T08:41:40Z</time>
      </trkpt>
      <trkpt lat="48.9877" lon="1.09728">
        <ele>129.92</ele>
        <time>2010-12-31T08:41:47Z</time>
      </trkpt>
      <trkpt lat="48.9878" lon="1.09709">
        <ele>126.07</ele>
        <time>2010-12-31T08:41:54Z</time>
      </trkpt>
      <trkpt lat="48.98786" lon="1.09702">
        <ele>131.84</ele>
        <time>2010-12-31T08:41:57Z</time>
      </trkpt>
      <trkpt lat="48.98787" lon="1.097">
        <ele>129.92</ele>
        <time>2010-12-31T08:41:58Z</time>
      </trkpt>
      <trkpt lat="48.98789" lon="1.09698">
        <ele>127.99</ele>
        <time>2010-12-31T08:41:59Z</time>
      </trkpt>
      <trkpt lat="48.98805" lon="1.09677">
        <ele>127.03</ele>
        <time>2010-12-31T08:42:08Z</time>
      </trkpt>
      <trkpt lat="48.98814" lon="1.09667">
        <ele>127.03</ele>
        <time>2010-12-31T08:42:13Z</time>
      </trkpt>
      <trkpt lat="48.98823" lon="1.09653">
        <ele>124.63</ele>
        <time>2010-12-31T08:42:19Z</time>
      </trkpt>
      <trkpt lat="48.98834" lon="1.09641">
        <ele>127.03</ele>
        <time>2010-12-31T08:42:23Z</time>
      </trkpt>
      <trkpt lat="48.9884" lon="1.09637">
        <ele>126.07</ele>
        <time>2010-12-31T08:42:25Z</time>
      </trkpt>
      <trkpt lat="48.98845" lon="1.09634">
        <ele>124.63</ele>
        <time>2010-12-31T08:42:27Z</time>
      </trkpt>
      <trkpt lat="48.9885" lon="1.09634">
        <ele>126.07</ele>
        <time>2010-12-31T08:42:29Z</time>
      </trkpt>
      <trkpt lat="48.98854" lon="1.09637">
        <ele>125.11</ele>
        <time>2010-12-31T08:42:31Z</time>
      </trkpt>
      <trkpt lat="48.98858" lon="1.0964">
        <ele>125.59</ele>
        <time>2010-12-31T08:42:33Z</time>
      </trkpt>
      <trkpt lat="48.98865" lon="1.09643">
        <ele>123.19</ele>
        <time>2010-12-31T08:42:36Z</time>
      </trkpt>
      <trkpt lat="48.98874" lon="1.09647">
        <ele>122.71</ele>
        <time>2010-12-31T08:42:40Z</time>
      </trkpt>
      <trkpt lat="48.989" lon="1.0967">
        <ele>123.19</ele>
        <time>2010-12-31T08:42:53Z</time>
      </trkpt>
      <trkpt lat="48.98902" lon="1.09672">
        <ele>123.19</ele>
        <time>2010-12-31T08:42:54Z</time>
      </trkpt>
      <trkpt lat="48.98908" lon="1.09681">
        <ele>123.67</ele>
        <time>2010-12-31T08:42:58Z</time>
      </trkpt>
      <trkpt lat="48.98912" lon="1.09686">
        <ele>121.74</ele>
        <time>2010-12-31T08:43:00Z</time>
      </trkpt>
      <trkpt lat="48.98928" lon="1.09705">
        <ele>121.26</ele>
        <time>2010-12-31T08:43:08Z</time>
      </trkpt>
      <trkpt lat="48.98935" lon="1.09712">
        <ele>119.34</ele>
        <time>2010-12-31T08:43:11Z</time>
      </trkpt>
      <trkpt lat="48.98941" lon="1.09716">
        <ele>122.71</ele>
        <time>2010-12-31T08:43:14Z</time>
      </trkpt>
      <trkpt lat="48.98948" lon="1.0972">
        <ele>119.34</ele>
        <time>2010-12-31T08:43:17Z</time>
      </trkpt>
      <trkpt lat="48.98954" lon="1.09728">
        <ele>119.82</ele>
        <time>2010-12-31T08:43:20Z</time>
      </trkpt>
      <trkpt lat="48.98979" lon="1.09762">
        <ele>119.82</ele>
        <time>2010-12-31T08:43:33Z</time>
      </trkpt>
      <trkpt lat="48.98984" lon="1.09765">
        <ele>118.86</ele>
        <time>2010-12-31T08:43:35Z</time>
      </trkpt>
      <trkpt lat="48.98995" lon="1.09775">
        <ele>117.9</ele>
        <time>2010-12-31T08:43:40Z</time>
      </trkpt>
      <trkpt lat="48.99006" lon="1.09786">
        <ele>116.46</ele>
        <time>2010-12-31T08:43:45Z</time>
      </trkpt>
      <trkpt lat="48.99027" lon="1.0982">
        <ele>115.98</ele>
        <time>2010-12-31T08:43:55Z</time>
      </trkpt>
      <trkpt lat="48.99031" lon="1.09826">
        <ele>112.61</ele>
        <time>2010-12-31T08:43:57Z</time>
      </trkpt>
      <trkpt lat="48.99049" lon="1.09854">
        <ele>109.73</ele>
        <time>2010-12-31T08:44:07Z</time>
      </trkpt>
      <trkpt lat="48.99073" lon="1.09873">
        <ele>107.32</ele>
        <time>2010-12-31T08:44:17Z</time>
      </trkpt>
      <trkpt lat="48.99075" lon="1.09875">
        <ele>110.69</ele>
        <time>2010-12-31T08:44:18Z</time>
      </trkpt>
      <trkpt lat="48.99079" lon="1.09878">
        <ele>106.36</ele>
        <time>2010-12-31T08:44:20Z</time>
      </trkpt>
      <trkpt lat="48.99082" lon="1.0988">
        <ele>107.81</ele>
        <time>2010-12-31T08:44:21Z</time>
      </trkpt>
      <trkpt lat="48.99089" lon="1.09886">
        <ele>106.84</ele>
        <time>2010-12-31T08:44:24Z</time>
      </trkpt>
      <trkpt lat="48.991" lon="1.09894">
        <ele>106.36</ele>
        <time>2010-12-31T08:44:29Z</time>
      </trkpt>
      <trkpt lat="48.99107" lon="1.099">
        <ele>107.32</ele>
        <time>2010-12-31T08:44:33Z</time>
      </trkpt>
      <trkpt lat="48.99117" lon="1.09907">
        <ele>103.96</ele>
        <time>2010-12-31T08:44:41Z</time>
      </trkpt>
      <trkpt lat="48.99125" lon="1.09909">
        <ele>103.48</ele>
        <time>2010-12-31T08:44:45Z</time>
      </trkpt>
      <trkpt lat="48.99135" lon="1.09918">
        <ele>102.52</ele>
        <time>2010-12-31T08:44:50Z</time>
      </trkpt>
      <trkpt lat="48.99165" lon="1.09946">
        <ele>101.08</ele>
        <time>2010-12-31T08:45:03Z</time>
      </trkpt>
      <trkpt lat="48.99167" lon="1.09948">
        <ele>97.71</ele>
        <time>2010-12-31T08:45:04Z</time>
      </trkpt>
      <trkpt lat="48.99197" lon="1.09968">
        <ele>98.19</ele>
        <time>2010-12-31T08:45:16Z</time>
      </trkpt>
      <trkpt lat="48.99218" lon="1.09979">
        <ele>94.83</ele>
        <time>2010-12-31T08:45:24Z</time>
      </trkpt>
      <trkpt lat="48.9925" lon="1.09987">
        <ele>91.46</ele>
        <time>2010-12-31T08:45:35Z</time>
      </trkpt>
      <trkpt lat="48.99272" lon="1.09987">
        <ele>92.42</ele>
        <time>2010-12-31T08:45:42Z</time>
      </trkpt>
      <trkpt lat="48.99286" lon="1.09982">
        <ele>89.06</ele>
        <time>2010-12-31T08:45:47Z</time>
      </trkpt>
      <trkpt lat="48.99289" lon="1.09981">
        <ele>89.06</ele>
        <time>2010-12-31T08:45:48Z</time>
      </trkpt>
      <trkpt lat="48.99311" lon="1.0997">
        <ele>86.18</ele>
        <time>2010-12-31T08:45:56Z</time>
      </trkpt>
      <trkpt lat="48.99323" lon="1.09964">
        <ele>86.18</ele>
        <time>2010-12-31T08:46:00Z</time>
      </trkpt>
      <trkpt lat="48.9933" lon="1.09961">
        <ele>87.14</ele>
        <time>2010-12-31T08:46:02Z</time>
      </trkpt>
      <trkpt lat="48.99347" lon="1.09955">
        <ele>83.77</ele>
        <time>2010-12-31T08:46:08Z</time>
      </trkpt>
      <trkpt lat="48.99395" lon="1.09935">
        <ele>83.29</ele>
        <time>2010-12-31T08:46:25Z</time>
      </trkpt>
      <trkpt lat="48.99403" lon="1.09931">
        <ele>81.85</ele>
        <time>2010-12-31T08:46:28Z</time>
      </trkpt>
      <trkpt lat="48.99419" lon="1.09923">
        <ele>80.89</ele>
        <time>2010-12-31T08:46:34Z</time>
      </trkpt>
      <trkpt lat="48.99437" lon="1.09913">
        <ele>78</ele>
        <time>2010-12-31T08:46:41Z</time>
      </trkpt>
      <trkpt lat="48.99456" lon="1.09885">
        <ele>78.48</ele>
        <time>2010-12-31T08:46:51Z</time>
      </trkpt>
      <trkpt lat="48.99473" lon="1.09866">
        <ele>77.04</ele>
        <time>2010-12-31T08:46:59Z</time>
      </trkpt>
      <trkpt lat="48.99498" lon="1.09871">
        <ele>74.16</ele>
        <time>2010-12-31T08:47:08Z</time>
      </trkpt>
      <trkpt lat="48.99509" lon="1.09882">
        <ele>78</ele>
        <time>2010-12-31T08:47:12Z</time>
      </trkpt>
      <trkpt lat="48.99517" lon="1.09895">
        <ele>74.64</ele>
        <time>2010-12-31T08:47:16Z</time>
      </trkpt>
      <trkpt lat="48.99538" lon="1.09944">
        <ele>72.24</ele>
        <time>2010-12-31T08:47:30Z</time>
      </trkpt>
      <trkpt lat="48.9955" lon="1.09987">
        <ele>68.87</ele>
        <time>2010-12-31T08:47:40Z</time>
      </trkpt>
      <trkpt lat="48.99557" lon="1.10011">
        <ele>69.83</ele>
        <time>2010-12-31T08:47:46Z</time>
      </trkpt>
      <trkpt lat="48.9956" lon="1.10019">
        <ele>67.43</ele>
        <time>2010-12-31T08:47:48Z</time>
      </trkpt>
      <trkpt lat="48.99569" lon="1.10029">
        <ele>66.47</ele>
        <time>2010-12-31T08:47:52Z</time>
      </trkpt>
      <trkpt lat="48.99571" lon="1.10029">
        <ele>65.51</ele>
        <time>2010-12-31T08:47:53Z</time>
      </trkpt>
      <trkpt lat="48.99578" lon="1.10027">
        <ele>66.47</ele>
        <time>2010-12-31T08:47:56Z</time>
      </trkpt>
      <trkpt lat="48.99591" lon="1.10018">
        <ele>65.99</ele>
        <time>2010-12-31T08:48:02Z</time>
      </trkpt>
      <trkpt lat="48.99631" lon="1.09992">
        <ele>65.51</ele>
        <time>2010-12-31T08:48:17Z</time>
      </trkpt>
      <trkpt lat="48.99662" lon="1.09971">
        <ele>65.99</ele>
        <time>2010-12-31T08:48:31Z</time>
      </trkpt>
      <trkpt lat="48.99692" lon="1.09941">
        <ele>66.95</ele>
        <time>2010-12-31T08:48:46Z</time>
      </trkpt>
      <trkpt lat="48.99697" lon="1.09934">
        <ele>65.03</ele>
        <time>2010-12-31T08:48:49Z</time>
      </trkpt>
      <trkpt lat="48.99701" lon="1.09929">
        <ele>65.99</ele>
        <time>2010-12-31T08:48:51Z</time>
      </trkpt>
      <trkpt lat="48.99712" lon="1.09915">
        <ele>64.55</ele>
        <time>2010-12-31T08:48:57Z</time>
      </trkpt>
      <trkpt lat="48.99715" lon="1.0991">
        <ele>66.95</ele>
        <time>2010-12-31T08:48:59Z</time>
      </trkpt>
      <trkpt lat="48.99718" lon="1.09905">
        <ele>65.03</ele>
        <time>2010-12-31T08:49:01Z</time>
      </trkpt>
      <trkpt lat="48.99721" lon="1.09901">
        <ele>66.95</ele>
        <time>2010-12-31T08:49:03Z</time>
      </trkpt>
      <trkpt lat="48.99727" lon="1.09892">
        <ele>63.1</ele>
        <time>2010-12-31T08:49:07Z</time>
      </trkpt>
      <trkpt lat="48.99729" lon="1.0989">
        <ele>66.95</ele>
        <time>2010-12-31T08:49:08Z</time>
      </trkpt>
      <trkpt lat="48.99753" lon="1.09856">
        <ele>65.51</ele>
        <time>2010-12-31T08:49:23Z</time>
      </trkpt>
      <trkpt lat="48.99766" lon="1.09839">
        <ele>66.47</ele>
        <time>2010-12-31T08:49:31Z</time>
      </trkpt>
      <trkpt lat="48.99786" lon="1.09813">
        <ele>66.47</ele>
        <time>2010-12-31T08:49:43Z</time>
      </trkpt>
      <trkpt lat="48.99791" lon="1.09806">
        <ele>63.1</ele>
        <time>2010-12-31T08:49:46Z</time>
      </trkpt>
      <trkpt lat="48.99801" lon="1.09799">
        <ele>68.39</ele>
        <time>2010-12-31T08:49:51Z</time>
      </trkpt>
      <trkpt lat="48.99803" lon="1.09797">
        <ele>65.99</ele>
        <time>2010-12-31T08:49:52Z</time>
      </trkpt>
      <trkpt lat="48.99825" lon="1.09777">
        <ele>64.55</ele>
        <time>2010-12-31T08:50:04Z</time>
      </trkpt>
      <trkpt lat="48.99829" lon="1.0978">
        <ele>68.87</ele>
        <time>2010-12-31T08:50:06Z</time>
      </trkpt>
      <trkpt lat="48.99831" lon="1.09783">
        <ele>65.51</ele>
        <time>2010-12-31T08:50:07Z</time>
      </trkpt>
      <trkpt lat="48.99845" lon="1.09815">
        <ele>64.55</ele>
        <time>2010-12-31T08:50:19Z</time>
      </trkpt>
      <trkpt lat="48.99858" lon="1.09849">
        <ele>67.91</ele>
        <time>2010-12-31T08:50:30Z</time>
      </trkpt>
      <trkpt lat="48.99863" lon="1.09859">
        <ele>63.58</ele>
        <time>2010-12-31T08:50:34Z</time>
      </trkpt>
      <trkpt lat="48.99864" lon="1.09862">
        <ele>64.55</ele>
        <time>2010-12-31T08:50:35Z</time>
      </trkpt>
      <trkpt lat="48.99865" lon="1.09865">
        <ele>68.39</ele>
        <time>2010-12-31T08:50:36Z</time>
      </trkpt>
      <trkpt lat="48.99866" lon="1.09868">
        <ele>66.47</ele>
        <time>2010-12-31T08:50:37Z</time>
      </trkpt>
      <trkpt lat="48.99874" lon="1.09892">
        <ele>66.95</ele>
        <time>2010-12-31T08:50:45Z</time>
      </trkpt>
      <trkpt lat="48.9989" lon="1.09931">
        <ele>66.47</ele>
        <time>2010-12-31T08:50:58Z</time>
      </trkpt>
      <trkpt lat="48.99904" lon="1.09976">
        <ele>66.95</ele>
        <time>2010-12-31T08:51:11Z</time>
      </trkpt>
      <trkpt lat="48.99905" lon="1.09979">
        <ele>66.47</ele>
        <time>2010-12-31T08:51:12Z</time>
      </trkpt>
      <trkpt lat="48.99921" lon="1.10025">
        <ele>64.55</ele>
        <time>2010-12-31T08:51:26Z</time>
      </trkpt>
      <trkpt lat="48.99922" lon="1.10029">
        <ele>68.39</ele>
        <time>2010-12-31T08:51:27Z</time>
      </trkpt>
      <trkpt lat="48.99923" lon="1.10032">
        <ele>65.03</ele>
        <time>2010-12-31T08:51:28Z</time>
      </trkpt>
      <trkpt lat="48.99938" lon="1.1007">
        <ele>66.95</ele>
        <time>2010-12-31T08:51:41Z</time>
      </trkpt>
      <trkpt lat="48.99944" lon="1.1011">
        <ele>66.47</ele>
        <time>2010-12-31T08:51:53Z</time>
      </trkpt>
      <trkpt lat="48.99948" lon="1.10114">
        <ele>65.51</ele>
        <time>2010-12-31T08:51:56Z</time>
      </trkpt>
      <trkpt lat="48.99951" lon="1.10114">
        <ele>68.39</ele>
        <time>2010-12-31T08:51:58Z</time>
      </trkpt>
      <trkpt lat="48.99952" lon="1.10113">
        <ele>66.47</ele>
        <time>2010-12-31T08:51:59Z</time>
      </trkpt>
      <trkpt lat="48.99969" lon="1.10098">
        <ele>66.95</ele>
        <time>2010-12-31T08:52:08Z</time>
      </trkpt>
      <trkpt lat="48.99996" lon="1.10084">
        <ele>66.47</ele>
        <time>2010-12-31T08:52:20Z</time>
      </trkpt>
      <trkpt lat="48.99999" lon="1.10082">
        <ele>69.35</ele>
        <time>2010-12-31T08:52:21Z</time>
      </trkpt>
      <trkpt lat="49.00004" lon="1.10078">
        <ele>65.51</ele>
        <time>2010-12-31T08:52:23Z</time>
      </trkpt>
      <trkpt lat="49.00007" lon="1.10077">
        <ele>68.87</ele>
        <time>2010-12-31T08:52:24Z</time>
      </trkpt>
      <trkpt lat="49.00015" lon="1.10072">
        <ele>65.03</ele>
        <time>2010-12-31T08:52:27Z</time>
      </trkpt>
      <trkpt lat="49.00035" lon="1.10063">
        <ele>68.87</ele>
        <time>2010-12-31T08:52:34Z</time>
      </trkpt>
      <trkpt lat="49.00038" lon="1.10062">
        <ele>68.39</ele>
        <time>2010-12-31T08:52:35Z</time>
      </trkpt>
      <trkpt lat="49.00044" lon="1.1006">
        <ele>67.43</ele>
        <time>2010-12-31T08:52:37Z</time>
      </trkpt>
      <trkpt lat="49.00056" lon="1.10055">
        <ele>64.07</ele>
        <time>2010-12-31T08:52:42Z</time>
      </trkpt>
      <trkpt lat="49.0008" lon="1.10046">
        <ele>65.99</ele>
        <time>2010-12-31T08:52:52Z</time>
      </trkpt>
      <trkpt lat="49.00108" lon="1.1002">
        <ele>64.55</ele>
        <time>2010-12-31T08:53:05Z</time>
      </trkpt>
      <trkpt lat="49.00121" lon="1.10007">
        <ele>67.43</ele>
        <time>2010-12-31T08:53:11Z</time>
      </trkpt>
      <trkpt lat="49.00144" lon="1.09984">
        <ele>64.55</ele>
        <time>2010-12-31T08:53:22Z</time>
      </trkpt>
      <trkpt lat="49.0015" lon="1.09979">
        <ele>67.43</ele>
        <time>2010-12-31T08:53:25Z</time>
      </trkpt>
      <trkpt lat="49.00161" lon="1.09967">
        <ele>65.51</ele>
        <time>2010-12-31T08:53:31Z</time>
      </trkpt>
      <trkpt lat="49.0019" lon="1.0994">
        <ele>64.07</ele>
        <time>2010-12-31T08:53:45Z</time>
      </trkpt>
      <trkpt lat="49.00192" lon="1.09938">
        <ele>67.43</ele>
        <time>2010-12-31T08:53:46Z</time>
      </trkpt>
      <trkpt lat="49.00211" lon="1.09918">
        <ele>65.99</ele>
        <time>2010-12-31T08:53:57Z</time>
      </trkpt>
      <trkpt lat="49.00227" lon="1.09902">
        <ele>68.87</ele>
        <time>2010-12-31T08:54:05Z</time>
      </trkpt>
      <trkpt lat="49.00231" lon="1.09897">
        <ele>66.95</ele>
        <time>2010-12-31T08:54:07Z</time>
      </trkpt>
      <trkpt lat="49.00235" lon="1.09888">
        <ele>66.47</ele>
        <time>2010-12-31T08:54:10Z</time>
      </trkpt>
      <trkpt lat="49.00237" lon="1.09881">
        <ele>65.99</ele>
        <time>2010-12-31T08:54:12Z</time>
      </trkpt>
      <trkpt lat="49.00238" lon="1.09862">
        <ele>68.39</ele>
        <time>2010-12-31T08:54:17Z</time>
      </trkpt>
      <trkpt lat="49.00232" lon="1.09829">
        <ele>65.03</ele>
        <time>2010-12-31T08:54:27Z</time>
      </trkpt>
      <trkpt lat="49.00223" lon="1.09808">
        <ele>67.43</ele>
        <time>2010-12-31T08:54:35Z</time>
      </trkpt>
      <trkpt lat="49.0021" lon="1.09784">
        <ele>66.95</ele>
        <time>2010-12-31T08:54:45Z</time>
      </trkpt>
      <trkpt lat="49.00185" lon="1.09748">
        <ele>68.87</ele>
        <time>2010-12-31T08:54:57Z</time>
      </trkpt>
      <trkpt lat="49.00182" lon="1.09743">
        <ele>67.43</ele>
        <time>2010-12-31T08:54:59Z</time>
      </trkpt>
      <trkpt lat="49.00169" lon="1.09714">
        <ele>68.87</ele>
        <time>2010-12-31T08:55:09Z</time>
      </trkpt>
      <trkpt lat="49.00166" lon="1.09696">
        <ele>73.2</ele>
        <time>2010-12-31T08:55:17Z</time>
      </trkpt>
      <trkpt lat="49.00166" lon="1.09694">
        <ele>72.24</ele>
        <time>2010-12-31T08:55:18Z</time>
      </trkpt>
      <trkpt lat="49.00164" lon="1.09669">
        <ele>73.2</ele>
        <time>2010-12-31T08:55:31Z</time>
      </trkpt>
      <trkpt lat="49.00164" lon="1.09665">
        <ele>77.04</ele>
        <time>2010-12-31T08:55:33Z</time>
      </trkpt>
      <trkpt lat="49.00164" lon="1.09663">
        <ele>76.08</ele>
        <time>2010-12-31T08:55:34Z</time>
      </trkpt>
      <trkpt lat="49.00164" lon="1.09652">
        <ele>79.45</ele>
        <time>2010-12-31T08:55:40Z</time>
      </trkpt>
      <trkpt lat="49.00163" lon="1.09651">
        <ele>74.64</ele>
        <time>2010-12-31T08:55:41Z</time>
      </trkpt>
      <trkpt lat="49.00163" lon="1.09649">
        <ele>78.97</ele>
        <time>2010-12-31T08:55:42Z</time>
      </trkpt>
      <trkpt lat="49.00163" lon="1.09642">
        <ele>77.52</ele>
        <time>2010-12-31T08:55:46Z</time>
      </trkpt>
      <trkpt lat="49.00162" lon="1.09626">
        <ele>80.89</ele>
        <time>2010-12-31T08:55:53Z</time>
      </trkpt>
      <trkpt lat="49.00161" lon="1.09618">
        <ele>79.93</ele>
        <time>2010-12-31T08:55:58Z</time>
      </trkpt>
      <trkpt lat="49.00161" lon="1.09616">
        <ele>83.77</ele>
        <time>2010-12-31T08:55:59Z</time>
      </trkpt>
      <trkpt lat="49.00161" lon="1.09613">
        <ele>82.33</ele>
        <time>2010-12-31T08:56:00Z</time>
      </trkpt>
      <trkpt lat="49.00161" lon="1.0961">
        <ele>81.85</ele>
        <time>2010-12-31T08:56:02Z</time>
      </trkpt>
      <trkpt lat="49.00162" lon="1.09607">
        <ele>83.77</ele>
        <time>2010-12-31T08:56:04Z</time>
      </trkpt>
      <trkpt lat="49.00164" lon="1.09587">
        <ele>87.14</ele>
        <time>2010-12-31T08:56:16Z</time>
      </trkpt>
      <trkpt lat="49.00168" lon="1.09576">
        <ele>87.62</ele>
        <time>2010-12-31T08:56:23Z</time>
      </trkpt>
      <trkpt lat="49.00169" lon="1.09565">
        <ele>90.98</ele>
        <time>2010-12-31T08:56:32Z</time>
      </trkpt>
      <trkpt lat="49.00168" lon="1.09561">
        <ele>87.62</ele>
        <time>2010-12-31T08:56:34Z</time>
      </trkpt>
      <trkpt lat="49.00168" lon="1.09554">
        <ele>90.98</ele>
        <time>2010-12-31T08:56:37Z</time>
      </trkpt>
      <trkpt lat="49.0017" lon="1.09543">
        <ele>94.83</ele>
        <time>2010-12-31T08:56:46Z</time>
      </trkpt>
      <trkpt lat="49.00171" lon="1.09541">
        <ele>91.46</ele>
        <time>2010-12-31T08:56:47Z</time>
      </trkpt>
      <trkpt lat="49.0017" lon="1.09533">
        <ele>94.35</ele>
        <time>2010-12-31T08:56:52Z</time>
      </trkpt>
      <trkpt lat="49.0017" lon="1.09531">
        <ele>94.35</ele>
        <time>2010-12-31T08:56:53Z</time>
      </trkpt>
      <trkpt lat="49.0017" lon="1.09527">
        <ele>94.35</ele>
        <time>2010-12-31T08:56:55Z</time>
      </trkpt>
      <trkpt lat="49.00171" lon="1.09518">
        <ele>97.23</ele>
        <time>2010-12-31T08:57:00Z</time>
      </trkpt>
      <trkpt lat="49.0017" lon="1.09513">
        <ele>99.63</ele>
        <time>2010-12-31T08:57:03Z</time>
      </trkpt>
      <trkpt lat="49.0017" lon="1.09511">
        <ele>95.31</ele>
        <time>2010-12-31T08:57:04Z</time>
      </trkpt>
      <trkpt lat="49.00169" lon="1.09498">
        <ele>98.67</ele>
        <time>2010-12-31T08:57:11Z</time>
      </trkpt>
      <trkpt lat="49.00168" lon="1.09486">
        <ele>99.15</ele>
        <time>2010-12-31T08:57:18Z</time>
      </trkpt>
      <trkpt lat="49.00168" lon="1.09466">
        <ele>102.52</ele>
        <time>2010-12-31T08:57:29Z</time>
      </trkpt>
      <trkpt lat="49.00168" lon="1.09458">
        <ele>103</ele>
        <time>2010-12-31T08:57:35Z</time>
      </trkpt>
      <trkpt lat="49.00167" lon="1.09452">
        <ele>104.44</ele>
        <time>2010-12-31T08:57:40Z</time>
      </trkpt>
      <trkpt lat="49.00166" lon="1.09442">
        <ele>105.4</ele>
        <time>2010-12-31T08:57:48Z</time>
      </trkpt>
      <trkpt lat="49.00164" lon="1.09437">
        <ele>106.84</ele>
        <time>2010-12-31T08:57:51Z</time>
      </trkpt>
      <trkpt lat="49.00161" lon="1.09414">
        <ele>107.32</ele>
        <time>2010-12-31T08:58:06Z</time>
      </trkpt>
      <trkpt lat="49.00161" lon="1.09413">
        <ele>110.21</ele>
        <time>2010-12-31T08:58:07Z</time>
      </trkpt>
      <trkpt lat="49.0016" lon="1.09394">
        <ele>112.13</ele>
        <time>2010-12-31T08:58:20Z</time>
      </trkpt>
      <trkpt lat="49.00157" lon="1.09372">
        <ele>115.98</ele>
        <time>2010-12-31T08:58:36Z</time>
      </trkpt>
      <trkpt lat="49.00157" lon="1.09355">
        <ele>118.86</ele>
        <time>2010-12-31T08:58:48Z</time>
      </trkpt>
      <trkpt lat="49.00157" lon="1.09352">
        <ele>115.5</ele>
        <time>2010-12-31T08:58:50Z</time>
      </trkpt>
      <trkpt lat="49.00158" lon="1.09347">
        <ele>117.42</ele>
        <time>2010-12-31T08:58:53Z</time>
      </trkpt>
      <trkpt lat="49.00157" lon="1.09339">
        <ele>119.34</ele>
        <time>2010-12-31T08:58:57Z</time>
      </trkpt>
      <trkpt lat="49.00154" lon="1.09311">
        <ele>119.82</ele>
        <time>2010-12-31T08:59:10Z</time>
      </trkpt>
      <trkpt lat="49.00145" lon="1.09287">
        <ele>119.82</ele>
        <time>2010-12-31T08:59:17Z</time>
      </trkpt>
      <trkpt lat="49.00137" lon="1.09256">
        <ele>121.74</ele>
        <time>2010-12-31T08:59:26Z</time>
      </trkpt>
      <trkpt lat="49.00136" lon="1.09253">
        <ele>118.38</ele>
        <time>2010-12-31T08:59:27Z</time>
      </trkpt>
      <trkpt lat="49.00133" lon="1.09241">
        <ele>120.3</ele>
        <time>2010-12-31T08:59:32Z</time>
      </trkpt>
      <trkpt lat="49.00136" lon="1.09198">
        <ele>119.34</ele>
        <time>2010-12-31T08:59:44Z</time>
      </trkpt>
      <trkpt lat="49.00139" lon="1.09192">
        <ele>120.3</ele>
        <time>2010-12-31T08:59:46Z</time>
      </trkpt>
      <trkpt lat="49.00147" lon="1.09179">
        <ele>122.22</ele>
        <time>2010-12-31T08:59:50Z</time>
      </trkpt>
      <trkpt lat="49.00152" lon="1.09174">
        <ele>120.3</ele>
        <time>2010-12-31T08:59:52Z</time>
      </trkpt>
      <trkpt lat="49.00163" lon="1.09161">
        <ele>119.82</ele>
        <time>2010-12-31T08:59:58Z</time>
      </trkpt>
      <trkpt lat="49.00197" lon="1.09145">
        <ele>118.86</ele>
        <time>2010-12-31T09:00:12Z</time>
      </trkpt>
      <trkpt lat="49.0023" lon="1.09131">
        <ele>116.46</ele>
        <time>2010-12-31T09:00:26Z</time>
      </trkpt>
      <trkpt lat="49.00233" lon="1.0913">
        <ele>117.9</ele>
        <time>2010-12-31T09:00:27Z</time>
      </trkpt>
      <trkpt lat="49.00251" lon="1.09104">
        <ele>115.5</ele>
        <time>2010-12-31T09:00:36Z</time>
      </trkpt>
      <trkpt lat="49.00247" lon="1.09078">
        <ele>117.9</ele>
        <time>2010-12-31T09:00:43Z</time>
      </trkpt>
      <trkpt lat="49.00243" lon="1.09069">
        <ele>116.46</ele>
        <time>2010-12-31T09:00:46Z</time>
      </trkpt>
      <trkpt lat="49.00239" lon="1.0906">
        <ele>118.38</ele>
        <time>2010-12-31T09:00:49Z</time>
      </trkpt>
      <trkpt lat="49.00236" lon="1.09055">
        <ele>116.94</ele>
        <time>2010-12-31T09:00:51Z</time>
      </trkpt>
      <trkpt lat="49.00218" lon="1.09019">
        <ele>117.9</ele>
        <time>2010-12-31T09:01:03Z</time>
      </trkpt>
      <trkpt lat="49.00216" lon="1.09012">
        <ele>115.98</ele>
        <time>2010-12-31T09:01:05Z</time>
      </trkpt>
      <trkpt lat="49.00214" lon="1.09008">
        <ele>119.34</ele>
        <time>2010-12-31T09:01:06Z</time>
      </trkpt>
      <trkpt lat="49.00213" lon="1.09005">
        <ele>117.42</ele>
        <time>2010-12-31T09:01:07Z</time>
      </trkpt>
      <trkpt lat="49.00206" lon="1.08975">
        <ele>120.78</ele>
        <time>2010-12-31T09:01:15Z</time>
      </trkpt>
      <trkpt lat="49.00206" lon="1.08967">
        <ele>116.46</ele>
        <time>2010-12-31T09:01:17Z</time>
      </trkpt>
      <trkpt lat="49.00214" lon="1.0895">
        <ele>122.22</ele>
        <time>2010-12-31T09:01:23Z</time>
      </trkpt>
      <trkpt lat="49.00234" lon="1.08948">
        <ele>122.71</ele>
        <time>2010-12-31T09:01:30Z</time>
      </trkpt>
      <trkpt lat="49.00236" lon="1.08948">
        <ele>116.94</ele>
        <time>2010-12-31T09:01:31Z</time>
      </trkpt>
      <trkpt lat="49.00242" lon="1.08947">
        <ele>118.38</ele>
        <time>2010-12-31T09:01:34Z</time>
      </trkpt>
      <trkpt lat="49.00249" lon="1.08947">
        <ele>119.82</ele>
        <time>2010-12-31T09:01:40Z</time>
      </trkpt>
      <trkpt lat="49.00253" lon="1.08947">
        <ele>115.98</ele>
        <time>2010-12-31T09:01:44Z</time>
      </trkpt>
      <trkpt lat="49.00258" lon="1.08945">
        <ele>119.82</ele>
        <time>2010-12-31T09:01:51Z</time>
      </trkpt>
      <trkpt lat="49.00259" lon="1.08944">
        <ele>116.94</ele>
        <time>2010-12-31T09:01:54Z</time>
      </trkpt>
      <trkpt lat="49.00266" lon="1.08946">
        <ele>115.98</ele>
        <time>2010-12-31T09:02:01Z</time>
      </trkpt>
      <trkpt lat="49.00267" lon="1.08941">
        <ele>120.3</ele>
        <time>2010-12-31T09:02:05Z</time>
      </trkpt>
      <trkpt lat="49.00267" lon="1.08939">
        <ele>117.9</ele>
        <time>2010-12-31T09:02:06Z</time>
      </trkpt>
      <trkpt lat="49.00266" lon="1.08933">
        <ele>117.9</ele>
        <time>2010-12-31T09:02:21Z</time>
      </trkpt>
      <trkpt lat="49.00266" lon="1.08933">
        <ele>120.3</ele>
        <time>2010-12-31T09:02:23Z</time>
      </trkpt>
      <trkpt lat="49.00266" lon="1.08933">
        <ele>117.42</ele>
        <time>2010-12-31T09:02:25Z</time>
      </trkpt>
      <trkpt lat="49.00266" lon="1.08933">
        <ele>121.74</ele>
        <time>2010-12-31T09:02:35Z</time>
      </trkpt>
      <trkpt lat="49.00266" lon="1.08933">
        <ele>116.46</ele>
        <time>2010-12-31T09:02:37Z</time>
      </trkpt>
      <trkpt lat="49.00266" lon="1.08933">
        <ele>117.9</ele>
        <time>2010-12-31T09:02:38Z</time>
      </trkpt>
      <trkpt lat="49.00266" lon="1.08933">
        <ele>117.9</ele>
        <time>2010-12-31T09:02:50Z</time>
      </trkpt>
      <trkpt lat="49.00266" lon="1.08933">
        <ele>119.34</ele>
        <time>2010-12-31T09:02:53Z</time>
      </trkpt>
      <trkpt lat="49.00266" lon="1.08933">
        <ele>116.46</ele>
        <time>2010-12-31T09:02:57Z</time>
      </trkpt>
      <trkpt lat="49.00266" lon="1.08933">
        <ele>119.82</ele>
        <time>2010-12-31T09:02:58Z</time>
      </trkpt>
      <trkpt lat="49.00266" lon="1.08934">
        <ele>117.9</ele>
        <time>2010-12-31T09:03:34Z</time>
      </trkpt>
      <trkpt lat="49.00266" lon="1.08934">
        <ele>116.46</ele>
        <time>2010-12-31T09:03:37Z</time>
      </trkpt>
      <trkpt lat="49.00266" lon="1.08934">
        <ele>121.26</ele>
        <time>2010-12-31T09:03:39Z</time>
      </trkpt>
      <trkpt lat="49.00266" lon="1.08934">
        <ele>118.86</ele>
        <time>2010-12-31T09:03:40Z</time>
      </trkpt>
      <trkpt lat="49.00266" lon="1.08934">
        <ele>122.22</ele>
        <time>2010-12-31T09:03:42Z</time>
      </trkpt>
      <trkpt lat="49.00266" lon="1.08934">
        <ele>118.86</ele>
        <time>2010-12-31T09:03:43Z</time>
      </trkpt>
      <trkpt lat="49.00266" lon="1.08934">
        <ele>117.42</ele>
        <time>2010-12-31T09:03:52Z</time>
      </trkpt>
      <trkpt lat="49.00265" lon="1.08935">
        <ele>116.46</ele>
        <time>2010-12-31T09:04:27Z</time>
      </trkpt>
      <trkpt lat="49.00265" lon="1.08935">
        <ele>119.34</ele>
        <time>2010-12-31T09:04:29Z</time>
      </trkpt>
      <trkpt lat="49.00265" lon="1.08935">
        <ele>117.9</ele>
        <time>2010-12-31T09:04:30Z</time>
      </trkpt>
      <trkpt lat="49.00265" lon="1.08935">
        <ele>116.46</ele>
        <time>2010-12-31T09:04:49Z</time>
      </trkpt>
      <trkpt lat="49.00265" lon="1.08935">
        <ele>119.34</ele>
        <time>2010-12-31T09:04:50Z</time>
      </trkpt>
      <trkpt lat="49.00265" lon="1.08935">
        <ele>119.34</ele>
        <time>2010-12-31T09:04:51Z</time>
      </trkpt>
      <trkpt lat="49.00265" lon="1.08935">
        <ele>118.38</ele>
        <time>2010-12-31T09:04:55Z</time>
      </trkpt>
      <trkpt lat="49.00265" lon="1.08935">
        <ele>117.42</ele>
        <time>2010-12-31T09:05:20Z</time>
      </trkpt>
      <trkpt lat="49.00265" lon="1.08935">
        <ele>121.26</ele>
        <time>2010-12-31T09:05:35Z</time>
      </trkpt>
      <trkpt lat="49.00265" lon="1.08935">
        <ele>117.9</ele>
        <time>2010-12-31T09:05:36Z</time>
      </trkpt>
      <trkpt lat="49.00265" lon="1.08935">
        <ele>118.86</ele>
        <time>2010-12-31T09:05:45Z</time>
      </trkpt>
      <trkpt lat="49.00265" lon="1.08935">
        <ele>115.5</ele>
        <time>2010-12-31T09:05:51Z</time>
      </trkpt>
      <trkpt lat="49.00265" lon="1.08935">
        <ele>119.34</ele>
        <time>2010-12-31T09:05:55Z</time>
      </trkpt>
      <trkpt lat="49.00265" lon="1.08935">
        <ele>115.98</ele>
        <time>2010-12-31T09:05:56Z</time>
      </trkpt>
      <trkpt lat="49.00265" lon="1.08935">
        <ele>119.82</ele>
        <time>2010-12-31T09:05:59Z</time>
      </trkpt>
      <trkpt lat="49.00265" lon="1.08935">
        <ele>114.53</ele>
        <time>2010-12-31T09:06:00Z</time>
      </trkpt>
      <trkpt lat="49.00265" lon="1.08935">
        <ele>117.9</ele>
        <time>2010-12-31T09:06:02Z</time>
      </trkpt>
      <trkpt lat="49.00265" lon="1.08936">
        <ele>117.42</ele>
        <time>2010-12-31T09:06:11Z</time>
      </trkpt>
      <trkpt lat="49.00265" lon="1.08936">
        <ele>118.38</ele>
        <time>2010-12-31T09:06:19Z</time>
      </trkpt>
      <trkpt lat="49.00265" lon="1.08936">
        <ele>116.94</ele>
        <time>2010-12-31T09:06:21Z</time>
      </trkpt>
      <trkpt lat="49.00265" lon="1.08936">
        <ele>115.01</ele>
        <time>2010-12-31T09:06:26Z</time>
      </trkpt>
      <trkpt lat="49.00265" lon="1.08936">
        <ele>119.82</ele>
        <time>2010-12-31T09:06:34Z</time>
      </trkpt>
      <trkpt lat="49.00265" lon="1.08936">
        <ele>115.01</ele>
        <time>2010-12-31T09:06:35Z</time>
      </trkpt>
      <trkpt lat="49.00265" lon="1.08936">
        <ele>118.86</ele>
        <time>2010-12-31T09:06:36Z</time>
      </trkpt>
      <trkpt lat="49.00265" lon="1.08936">
        <ele>117.42</ele>
        <time>2010-12-31T09:06:39Z</time>
      </trkpt>
      <trkpt lat="49.00265" lon="1.08937">
        <ele>118.86</ele>
        <time>2010-12-31T09:06:59Z</time>
      </trkpt>
      <trkpt lat="49.00265" lon="1.08937">
        <ele>113.57</ele>
        <time>2010-12-31T09:07:03Z</time>
      </trkpt>
      <trkpt lat="49.00265" lon="1.08937">
        <ele>118.38</ele>
        <time>2010-12-31T09:07:04Z</time>
      </trkpt>
      <trkpt lat="49.00265" lon="1.08937">
        <ele>115.5</ele>
        <time>2010-12-31T09:07:05Z</time>
      </trkpt>
      <trkpt lat="49.00265" lon="1.08937">
        <ele>119.82</ele>
        <time>2010-12-31T09:07:08Z</time>
      </trkpt>
      <trkpt lat="49.00263" lon="1.08937">
        <ele>116.46</ele>
        <time>2010-12-31T09:07:12Z</time>
      </trkpt>
      <trkpt lat="49.0026" lon="1.08937">
        <ele>118.86</ele>
        <time>2010-12-31T09:07:14Z</time>
      </trkpt>
      <trkpt lat="49.00256" lon="1.08935">
        <ele>116.94</ele>
        <time>2010-12-31T09:07:18Z</time>
      </trkpt>
      <trkpt lat="49.00249" lon="1.08926">
        <ele>119.82</ele>
        <time>2010-12-31T09:07:30Z</time>
      </trkpt>
      <trkpt lat="49.00246" lon="1.08921">
        <ele>117.9</ele>
        <time>2010-12-31T09:07:41Z</time>
      </trkpt>
      <trkpt lat="49.00246" lon="1.08922">
        <ele>118.86</ele>
        <time>2010-12-31T09:07:43Z</time>
      </trkpt>
      <trkpt lat="49.00246" lon="1.08922">
        <ele>119.82</ele>
        <time>2010-12-31T09:07:49Z</time>
      </trkpt>
      <trkpt lat="49.00246" lon="1.08922">
        <ele>116.46</ele>
        <time>2010-12-31T09:07:50Z</time>
      </trkpt>
      <trkpt lat="49.00246" lon="1.08922">
        <ele>119.82</ele>
        <time>2010-12-31T09:07:51Z</time>
      </trkpt>
      <trkpt lat="49.00246" lon="1.08922">
        <ele>118.38</ele>
        <time>2010-12-31T09:07:54Z</time>
      </trkpt>
      <trkpt lat="49.00246" lon="1.08922">
        <ele>119.34</ele>
        <time>2010-12-31T09:08:10Z</time>
      </trkpt>
      <trkpt lat="49.00246" lon="1.08922">
        <ele>117.42</ele>
        <time>2010-12-31T09:08:23Z</time>
      </trkpt>
      <trkpt lat="49.00246" lon="1.08922">
        <ele>120.78</ele>
        <time>2010-12-31T09:08:25Z</time>
      </trkpt>
      <trkpt lat="49.00246" lon="1.08922">
        <ele>116.94</ele>
        <time>2010-12-31T09:08:27Z</time>
      </trkpt>
      <trkpt lat="49.00246" lon="1.08922">
        <ele>119.82</ele>
        <time>2010-12-31T09:08:31Z</time>
      </trkpt>
      <trkpt lat="49.00246" lon="1.08922">
        <ele>116.46</ele>
        <time>2010-12-31T09:08:37Z</time>
      </trkpt>
      <trkpt lat="49.00245" lon="1.08923">
        <ele>120.3</ele>
        <time>2010-12-31T09:08:39Z</time>
      </trkpt>
      <trkpt lat="49.00245" lon="1.08923">
        <ele>119.82</ele>
        <time>2010-12-31T09:08:40Z</time>
      </trkpt>
      <trkpt lat="49.00244" lon="1.08925">
        <ele>118.86</ele>
        <time>2010-12-31T09:09:01Z</time>
      </trkpt>
      <trkpt lat="49.00244" lon="1.08925">
        <ele>123.67</ele>
        <time>2010-12-31T09:09:22Z</time>
      </trkpt>
      <trkpt lat="49.00244" lon="1.08925">
        <ele>117.9</ele>
        <time>2010-12-31T09:09:23Z</time>
      </trkpt>
      <trkpt lat="49.00244" lon="1.08925">
        <ele>118.86</ele>
        <time>2010-12-31T09:09:29Z</time>
      </trkpt>
      <trkpt lat="49.00244" lon="1.08925">
        <ele>115.98</ele>
        <time>2010-12-31T09:09:36Z</time>
      </trkpt>
      <trkpt lat="49.00244" lon="1.08925">
        <ele>119.82</ele>
        <time>2010-12-31T09:09:38Z</time>
      </trkpt>
      <trkpt lat="49.00245" lon="1.08919">
        <ele>119.34</ele>
        <time>2010-12-31T09:09:51Z</time>
      </trkpt>
      <trkpt lat="49.00245" lon="1.08918">
        <ele>120.78</ele>
        <time>2010-12-31T09:09:53Z</time>
      </trkpt>
      <trkpt lat="49.00246" lon="1.08918">
        <ele>115.98</ele>
        <time>2010-12-31T09:09:55Z</time>
      </trkpt>
      <trkpt lat="49.00246" lon="1.08918">
        <ele>119.34</ele>
        <time>2010-12-31T09:09:56Z</time>
      </trkpt>
      <trkpt lat="49.00247" lon="1.08918">
        <ele>119.34</ele>
        <time>2010-12-31T09:10:01Z</time>
      </trkpt>
      <trkpt lat="49.00247" lon="1.08919">
        <ele>119.34</ele>
        <time>2010-12-31T09:10:08Z</time>
      </trkpt>
      <trkpt lat="49.00249" lon="1.08919">
        <ele>120.78</ele>
        <time>2010-12-31T09:10:15Z</time>
      </trkpt>
      <trkpt lat="49.00249" lon="1.08915">
        <ele>119.82</ele>
        <time>2010-12-31T09:10:28Z</time>
      </trkpt>
      <trkpt lat="49.00249" lon="1.08915">
        <ele>116.94</ele>
        <time>2010-12-31T09:10:31Z</time>
      </trkpt>
      <trkpt lat="49.00249" lon="1.08914">
        <ele>120.78</ele>
        <time>2010-12-31T09:10:34Z</time>
      </trkpt>
      <trkpt lat="49.00249" lon="1.08916">
        <ele>121.26</ele>
        <time>2010-12-31T09:10:38Z</time>
      </trkpt>
      <trkpt lat="49.00249" lon="1.08916">
        <ele>120.3</ele>
        <time>2010-12-31T09:10:42Z</time>
      </trkpt>
      <trkpt lat="49.00248" lon="1.08915">
        <ele>123.19</ele>
        <time>2010-12-31T09:10:49Z</time>
      </trkpt>
      <trkpt lat="49.00247" lon="1.08914">
        <ele>118.86</ele>
        <time>2010-12-31T09:10:52Z</time>
      </trkpt>
      <trkpt lat="49.00246" lon="1.08913">
        <ele>122.22</ele>
        <time>2010-12-31T09:10:53Z</time>
      </trkpt>
      <trkpt lat="49.00246" lon="1.0891">
        <ele>121.26</ele>
        <time>2010-12-31T09:11:02Z</time>
      </trkpt>
      <trkpt lat="49.00245" lon="1.08906">
        <ele>120.78</ele>
        <time>2010-12-31T09:11:10Z</time>
      </trkpt>
      <trkpt lat="49.00246" lon="1.08915">
        <ele>124.15</ele>
        <time>2010-12-31T09:11:53Z</time>
      </trkpt>
      <trkpt lat="49.00246" lon="1.08915">
        <ele>124.15</ele>
        <time>2010-12-31T09:11:54Z</time>
      </trkpt>
      <trkpt lat="49.00246" lon="1.08915">
        <ele>119.34</ele>
        <time>2010-12-31T09:11:55Z</time>
      </trkpt>
      <trkpt lat="49.00246" lon="1.08915">
        <ele>120.78</ele>
        <time>2010-12-31T09:11:56Z</time>
      </trkpt>
      <trkpt lat="49.00246" lon="1.08915">
        <ele>122.22</ele>
        <time>2010-12-31T09:12:03Z</time>
      </trkpt>
      <trkpt lat="49.00246" lon="1.08915">
        <ele>117.9</ele>
        <time>2010-12-31T09:12:04Z</time>
      </trkpt>
      <trkpt lat="49.00246" lon="1.08915">
        <ele>119.82</ele>
        <time>2010-12-31T09:12:05Z</time>
      </trkpt>
      <trkpt lat="49.00245" lon="1.08915">
        <ele>121.26</ele>
        <time>2010-12-31T09:12:07Z</time>
      </trkpt>
      <trkpt lat="49.00241" lon="1.08918">
        <ele>125.59</ele>
        <time>2010-12-31T09:12:26Z</time>
      </trkpt>
      <trkpt lat="49.00241" lon="1.08918">
        <ele>119.82</ele>
        <time>2010-12-31T09:12:27Z</time>
      </trkpt>
      <trkpt lat="49.00241" lon="1.08919">
        <ele>119.82</ele>
        <time>2010-12-31T09:12:28Z</time>
      </trkpt>
      <trkpt lat="49.00242" lon="1.08921">
        <ele>124.63</ele>
        <time>2010-12-31T09:12:32Z</time>
      </trkpt>
      <trkpt lat="49.00242" lon="1.0892">
        <ele>120.78</ele>
        <time>2010-12-31T09:12:35Z</time>
      </trkpt>
      <trkpt lat="49.00242" lon="1.08926">
        <ele>122.22</ele>
        <time>2010-12-31T09:12:53Z</time>
      </trkpt>
      <trkpt lat="49.00242" lon="1.08931">
        <ele>120.3</ele>
        <time>2010-12-31T09:12:59Z</time>
      </trkpt>
      <trkpt lat="49.00242" lon="1.08935">
        <ele>121.74</ele>
        <time>2010-12-31T09:13:01Z</time>
      </trkpt>
      <trkpt lat="49.00242" lon="1.0894">
        <ele>123.19</ele>
        <time>2010-12-31T09:13:10Z</time>
      </trkpt>
      <trkpt lat="49.00242" lon="1.08941">
        <ele>119.34</ele>
        <time>2010-12-31T09:13:12Z</time>
      </trkpt>
      <trkpt lat="49.00242" lon="1.08941">
        <ele>123.67</ele>
        <time>2010-12-31T09:13:14Z</time>
      </trkpt>
      <trkpt lat="49.00242" lon="1.08941">
        <ele>119.34</ele>
        <time>2010-12-31T09:13:17Z</time>
      </trkpt>
      <trkpt lat="49.00242" lon="1.08941">
        <ele>122.71</ele>
        <time>2010-12-31T09:13:19Z</time>
      </trkpt>
      <trkpt lat="49.00242" lon="1.08941">
        <ele>122.22</ele>
        <time>2010-12-31T09:13:29Z</time>
      </trkpt>
      <trkpt lat="49.00241" lon="1.08932">
        <ele>121.26</ele>
        <time>2010-12-31T09:13:55Z</time>
      </trkpt>
      <trkpt lat="49.00241" lon="1.08929">
        <ele>121.74</ele>
        <time>2010-12-31T09:13:57Z</time>
      </trkpt>
      <trkpt lat="49.00242" lon="1.08922">
        <ele>119.82</ele>
        <time>2010-12-31T09:14:08Z</time>
      </trkpt>
      <trkpt lat="49.00242" lon="1.08922">
        <ele>122.71</ele>
        <time>2010-12-31T09:14:10Z</time>
      </trkpt>
      <trkpt lat="49.00242" lon="1.08921">
        <ele>120.78</ele>
        <time>2010-12-31T09:14:21Z</time>
      </trkpt>
      <trkpt lat="49.00242" lon="1.08925">
        <ele>123.19</ele>
        <time>2010-12-31T09:14:28Z</time>
      </trkpt>
      <trkpt lat="49.00242" lon="1.08932">
        <ele>122.22</ele>
        <time>2010-12-31T09:14:43Z</time>
      </trkpt>
      <trkpt lat="49.00242" lon="1.08933">
        <ele>123.19</ele>
        <time>2010-12-31T09:14:54Z</time>
      </trkpt>
      <trkpt lat="49.00242" lon="1.08936">
        <ele>120.78</ele>
        <time>2010-12-31T09:15:07Z</time>
      </trkpt>
      <trkpt lat="49.00242" lon="1.08937">
        <ele>124.15</ele>
        <time>2010-12-31T09:15:10Z</time>
      </trkpt>
      <trkpt lat="49.00242" lon="1.08937">
        <ele>120.3</ele>
        <time>2010-12-31T09:15:11Z</time>
      </trkpt>
      <trkpt lat="49.00241" lon="1.08938">
        <ele>120.3</ele>
        <time>2010-12-31T09:15:17Z</time>
      </trkpt>
      <trkpt lat="49.00241" lon="1.08939">
        <ele>123.67</ele>
        <time>2010-12-31T09:15:22Z</time>
      </trkpt>
      <trkpt lat="49.00241" lon="1.08939">
        <ele>122.71</ele>
        <time>2010-12-31T09:15:23Z</time>
      </trkpt>
      <trkpt lat="49.00241" lon="1.0894">
        <ele>121.26</ele>
        <time>2010-12-31T09:15:26Z</time>
      </trkpt>
      <trkpt lat="49.00241" lon="1.08941">
        <ele>119.34</ele>
        <time>2010-12-31T09:15:33Z</time>
      </trkpt>
      <trkpt lat="49.00241" lon="1.08941">
        <ele>122.71</ele>
        <time>2010-12-31T09:15:37Z</time>
      </trkpt>
      <trkpt lat="49.00241" lon="1.08941">
        <ele>119.34</ele>
        <time>2010-12-31T09:15:40Z</time>
      </trkpt>
      <trkpt lat="49.00241" lon="1.08942">
        <ele>120.78</ele>
        <time>2010-12-31T09:15:41Z</time>
      </trkpt>
      <trkpt lat="49.00241" lon="1.08943">
        <ele>120.78</ele>
        <time>2010-12-31T09:15:55Z</time>
      </trkpt>
      <trkpt lat="49.00241" lon="1.08945">
        <ele>124.15</ele>
        <time>2010-12-31T09:16:08Z</time>
      </trkpt>
      <trkpt lat="49.00241" lon="1.08946">
        <ele>121.26</ele>
        <time>2010-12-31T09:16:11Z</time>
      </trkpt>
      <trkpt lat="49.00241" lon="1.08945">
        <ele>121.26</ele>
        <time>2010-12-31T09:16:12Z</time>
      </trkpt>
      <trkpt lat="49.00241" lon="1.08942">
        <ele>119.82</ele>
        <time>2010-12-31T09:16:18Z</time>
      </trkpt>
      <trkpt lat="49.00241" lon="1.08943">
        <ele>119.82</ele>
        <time>2010-12-31T09:16:26Z</time>
      </trkpt>
      <trkpt lat="49.00241" lon="1.08943">
        <ele>123.19</ele>
        <time>2010-12-31T09:16:27Z</time>
      </trkpt>
      <trkpt lat="49.00241" lon="1.08943">
        <ele>122.71</ele>
        <time>2010-12-31T09:16:28Z</time>
      </trkpt>
      <trkpt lat="49.00241" lon="1.08943">
        <ele>121.26</ele>
        <time>2010-12-31T09:16:33Z</time>
      </trkpt>
      <trkpt lat="49.00241" lon="1.08943">
        <ele>124.15</ele>
        <time>2010-12-31T09:16:40Z</time>
      </trkpt>
      <trkpt lat="49.00241" lon="1.08943">
        <ele>119.82</ele>
        <time>2010-12-31T09:16:42Z</time>
      </trkpt>
      <trkpt lat="49.00241" lon="1.08943">
        <ele>123.67</ele>
        <time>2010-12-31T09:16:43Z</time>
      </trkpt>
      <trkpt lat="49.00241" lon="1.08943">
        <ele>119.82</ele>
        <time>2010-12-31T09:16:44Z</time>
      </trkpt>
      <trkpt lat="49.00241" lon="1.08943">
        <ele>124.15</ele>
        <time>2010-12-31T09:16:48Z</time>
      </trkpt>
      <trkpt lat="49.00241" lon="1.08943">
        <ele>124.15</ele>
        <time>2010-12-31T09:16:49Z</time>
      </trkpt>
      <trkpt lat="49.00241" lon="1.08943">
        <ele>123.19</ele>
        <time>2010-12-31T09:16:58Z</time>
      </trkpt>
      <trkpt lat="49.00241" lon="1.08943">
        <ele>121.26</ele>
        <time>2010-12-31T09:17:09Z</time>
      </trkpt>
      <trkpt lat="49.00241" lon="1.08943">
        <ele>123.19</ele>
        <time>2010-12-31T09:17:11Z</time>
      </trkpt>
      <trkpt lat="49.00241" lon="1.08942">
        <ele>119.82</ele>
        <time>2010-12-31T09:17:20Z</time>
      </trkpt>
      <trkpt lat="49.00241" lon="1.08942">
        <ele>121.26</ele>
        <time>2010-12-31T09:17:24Z</time>
      </trkpt>
      <trkpt lat="49.00241" lon="1.08942">
        <ele>123.19</ele>
        <time>2010-12-31T09:17:30Z</time>
      </trkpt>
      <trkpt lat="49.00241" lon="1.08942">
        <ele>121.26</ele>
        <time>2010-12-31T09:17:33Z</time>
      </trkpt>
      <trkpt lat="49.00241" lon="1.08942">
        <ele>125.59</ele>
        <time>2010-12-31T09:17:36Z</time>
      </trkpt>
      <trkpt lat="49.00241" lon="1.08942">
        <ele>120.78</ele>
        <time>2010-12-31T09:17:38Z</time>
      </trkpt>
      <trkpt lat="49.00241" lon="1.08942">
        <ele>122.22</ele>
        <time>2010-12-31T09:17:39Z</time>
      </trkpt>
      <trkpt lat="49.00241" lon="1.08942">
        <ele>123.67</ele>
        <time>2010-12-31T09:17:45Z</time>
      </trkpt>
      <trkpt lat="49.00241" lon="1.08942">
        <ele>121.26</ele>
        <time>2010-12-31T09:17:49Z</time>
      </trkpt>
      <trkpt lat="49.00241" lon="1.08942">
        <ele>123.67</ele>
        <time>2010-12-31T09:18:12Z</time>
      </trkpt>
      <trkpt lat="49.00241" lon="1.08942">
        <ele>123.19</ele>
        <time>2010-12-31T09:18:20Z</time>
      </trkpt>
      <trkpt lat="49.00241" lon="1.08942">
        <ele>122.22</ele>
        <time>2010-12-31T09:18:22Z</time>
      </trkpt>
      <trkpt lat="49.00241" lon="1.08942">
        <ele>120.78</ele>
        <time>2010-12-31T09:18:28Z</time>
      </trkpt>
      <trkpt lat="49.00241" lon="1.08942">
        <ele>122.71</ele>
        <time>2010-12-31T09:18:30Z</time>
      </trkpt>
      <trkpt lat="49.00241" lon="1.08942">
        <ele>121.26</ele>
        <time>2010-12-31T09:18:33Z</time>
      </trkpt>
      <trkpt lat="49.00241" lon="1.08942">
        <ele>120.78</ele>
        <time>2010-12-31T09:18:34Z</time>
      </trkpt>
    </trkseg>
  </trk>
</gpx>